Wetterdaten: Samstag, 30.03.2019
Datum Zeit Temp. Aussen Temp. o. S. +5cm Feuchte Auss Luftdruck Regen Sonnenschein Regendauer Solar Windben Empfang
30.03.2019 00:00 7,4 C 6,7 C 4,4 C 87 % 1023,2 hPa 0,0 l/m 0 min 0 min 0 W/m 0,0 km/h (0 Bft) 100,00 %
30.03.2019 00:02 7,4 C 6,1 C 4,4 C 87 % 1023,1 hPa 0,0 l/m 0 min 0 min 0 W/m 0,0 km/h (0 Bft) 10,53 %
30.03.2019 00:04 7,4 C 6,1 C 4,4 C 87 % 1023,1 hPa 0,0 l/m 0 min 0 min 0 W/m 0,0 km/h (0 Bft) 89,74 %
30.03.2019 00:08 7,3 C 6,1 C 4,4 C 87 % 1023,1 hPa 0,0 l/m 0 min 0 min 0 W/m 0,0 km/h (0 Bft) 96,77 %
30.03.2019 00:10 7,3 C 6,1 C 4,4 C 87 % 1023,1 hPa 0,0 l/m 0 min 0 min 0 W/m 0,0 km/h (0 Bft) 97,87 %
30.03.2019 00:12 7,3 C 6,1 C 4,4 C 87 % 1023,1 hPa 0,0 l/m 0 min 0 min 0 W/m 0,0 km/h (0 Bft) 97,87 %
30.03.2019 00:14 7,3 C 5,6 C 4,4 C 87 % 1023,1 hPa 0,0 l/m 0 min 0 min 0 W/m 0,0 km/h (0 Bft) 95,74 %
30.03.2019 00:16 7,3 C 6,1 C 4,4 C 87 % 1023,1 hPa 0,0 l/m 0 min 0 min 0 W/m 0,0 km/h (0 Bft) 97,87 %
30.03.2019 00:18 7,2 C 6,1 C 4,4 C 87 % 1023,0 hPa 0,0 l/m 0 min 0 min 0 W/m 0,0 km/h (0 Bft) 97,87 %
30.03.2019 00:20 7,2 C 6,1 C 4,4 C 87 % 1023,0 hPa 0,0 l/m 0 min 0 min 0 W/m 0,0 km/h (0 Bft) 97,83 %
30.03.2019 00:22 7,2 C 6,7 C 4,4 C 87 % 1023,0 hPa 0,0 l/m 0 min 0 min 0 W/m 0,0 km/h (0 Bft) 91,49 %
30.03.2019 00:24 7,2 C 6,7 C 4,4 C 87 % 1022,9 hPa 0,0 l/m 0 min 0 min 0 W/m 3,2 km/h (1 Bft) 97,87 %
30.03.2019 00:26 7,2 C 6,7 C 4,4 C 87 % 1022,9 hPa 0,0 l/m 0 min 0 min 0 W/m 0,0 km/h (0 Bft) 97,87 %
30.03.2019 00:28 7,2 C 6,7 C 4,4 C 88 % 1022,9 hPa 0,0 l/m 0 min 0 min 0 W/m 0,0 km/h (0 Bft) 95,74 %
30.03.2019 00:30 7,1 C 6,7 C 4,4 C 88 % 1022,9 hPa 0,0 l/m 0 min 0 min 0 W/m 0,0 km/h (0 Bft) 100,00 %
30.03.2019 00:32 7,1 C 6,7 C 4,4 C 88 % 1022,8 hPa 0,0 l/m 0 min 0 min 0 W/m 0,0 km/h (0 Bft) 95,65 %
30.03.2019 00:34 7,1 C 6,7 C 4,4 C 88 % 1022,9 hPa 0,0 l/m 0 min 0 min 0 W/m 3,2 km/h (1 Bft) 100,00 %
30.03.2019 00:36 7,1 C 6,7 C 4,4 C 88 % 1022,9 hPa 0,0 l/m 0 min 0 min 0 W/m 0,0 km/h (0 Bft) 100,00 %
30.03.2019 00:38 7,1 C 6,7 C 4,4 C 88 % 1022,9 hPa 0,0 l/m 0 min 0 min 0 W/m 0,0 km/h (0 Bft) 100,00 %
30.03.2019 00:40 7,1 C 6,7 C 4,4 C 88 % 1022,8 hPa 0,0 l/m 0 min 0 min 0 W/m 0,0 km/h (0 Bft) 100,00 %
30.03.2019 00:42 7,1 C 6,7 C 4,4 C 88 % 1022,8 hPa 0,0 l/m 0 min 0 min 0 W/m 0,0 km/h (0 Bft) 100,00 %
30.03.2019 00:44 7,1 C 6,7 C 4,4 C 88 % 1022,7 hPa 0,0 l/m 0 min 0 min 0 W/m 0,0 km/h (0 Bft) 100,00 %
30.03.2019 00:46 7,1 C 7,2 C 4,4 C 88 % 1022,8 hPa 0,0 l/m 0 min 0 min 0 W/m 0,0 km/h (0 Bft) 97,87 %
30.03.2019 00:48 7,1 C 7,8 C 4,4 C 88 % 1022,7 hPa 0,0 l/m 0 min 0 min 0 W/m 0,0 km/h (0 Bft) 95,74 %
30.03.2019 00:50 7,1 C 7,8 C 4,4 C 89 % 1022,7 hPa 0,0 l/m 0 min 0 min 0 W/m 3,2 km/h (1 Bft) 97,87 %
30.03.2019 00:52 7,1 C 7,8 C 4,4 C 89 % 1022,6 hPa 0,0 l/m 0 min 0 min 0 W/m 3,2 km/h (1 Bft) 95,74 %
30.03.2019 00:54 7,1 C 7,8 C 4,4 C 89 % 1022,7 hPa 0,0 l/m 0 min 0 min 0 W/m 0,0 km/h (0 Bft) 97,83 %
30.03.2019 00:56 7,2 C 8,3 C 5,0 C 89 % 1022,6 hPa 0,0 l/m 0 min 0 min 0 W/m 6,4 km/h (2 Bft) 97,87 %
30.03.2019 00:58 7,2 C 7,8 C 5,0 C 89 % 1022,6 hPa 0,0 l/m 0 min 0 min 0 W/m 0,0 km/h (0 Bft) 97,87 %
30.03.2019 01:00 7,2 C 7,8 C 5,0 C 89 % 1022,6 hPa 0,0 l/m 0 min 0 min 0 W/m 0,0 km/h (0 Bft) 97,87 %
30.03.2019 01:02 7,2 C 8,3 C 5,0 C 89 % 1022,5 hPa 0,0 l/m 0 min 0 min 0 W/m 0,0 km/h (0 Bft) 97,87 %
30.03.2019 01:04 7,3 C 7,8 C 5,0 C 89 % 1022,5 hPa 0,0 l/m 0 min 0 min 0 W/m 0,0 km/h (0 Bft) 97,87 %
30.03.2019 01:06 7,3 C 7,8 C 5,0 C 89 % 1022,6 hPa 0,0 l/m 0 min 0 min 0 W/m 0,0 km/h (0 Bft) 95,65 %
30.03.2019 01:08 7,3 C 7,8 C 5,0 C 89 % 1022,6 hPa 0,0 l/m 0 min 0 min 0 W/m 3,2 km/h (1 Bft) 97,87 %
30.03.2019 01:10 7,3 C 7,8 C 5,6 C 89 % 1022,5 hPa 0,0 l/m 0 min 0 min 0 W/m 0,0 km/h (0 Bft) 97,87 %
30.03.2019 01:12 7,4 C 7,8 C 5,6 C 89 % 1022,5 hPa 0,0 l/m 0 min 0 min 0 W/m 3,2 km/h (1 Bft) 97,87 %
30.03.2019 01:14 7,4 C 7,8 C 5,6 C 89 % 1022,5 hPa 0,0 l/m 0 min 0 min 0 W/m 3,2 km/h (1 Bft) 97,87 %
30.03.2019 01:16 7,4 C 7,8 C 5,6 C 89 % 1022,5 hPa 0,0 l/m 0 min 0 min 0 W/m 6,4 km/h (2 Bft) 97,87 %
30.03.2019 01:18 7,4 C 8,3 C 6,1 C 89 % 1022,5 hPa 0,0 l/m 0 min 0 min 0 W/m 6,4 km/h (2 Bft) 97,83 %
30.03.2019 01:20 7,5 C 8,3 C 6,7 C 89 % 1022,5 hPa 0,0 l/m 0 min 0 min 0 W/m 9,7 km/h (2 Bft) 97,87 %
30.03.2019 01:22 7,6 C 8,3 C 6,7 C 89 % 1022,5 hPa 0,0 l/m 0 min 0 min 0 W/m 9,7 km/h (2 Bft) 95,74 %
30.03.2019 01:24 7,6 C 8,3 C 6,7 C 89 % 1022,4 hPa 0,0 l/m 0 min 0 min 0 W/m 6,4 km/h (2 Bft) 97,87 %
30.03.2019 01:26 7,6 C 8,3 C 6,7 C 89 % 1022,4 hPa 0,0 l/m 0 min 0 min 0 W/m 6,4 km/h (2 Bft) 97,87 %
30.03.2019 01:28 7,7 C 7,8 C 6,7 C 89 % 1022,4 hPa 0,0 l/m 0 min 0 min 0 W/m 6,4 km/h (2 Bft) 97,87 %
30.03.2019 01:30 7,7 C 7,8 C 6,7 C 89 % 1022,4 hPa 0,0 l/m 0 min 0 min 0 W/m 3,2 km/h (1 Bft) 97,83 %
30.03.2019 01:32 7,7 C 7,8 C 6,7 C 88 % 1022,4 hPa 0,0 l/m 0 min 0 min 0 W/m 9,7 km/h (2 Bft) 97,87 %
30.03.2019 01:34 7,8 C 7,8 C 6,7 C 88 % 1022,3 hPa 0,0 l/m 0 min 0 min 0 W/m 6,4 km/h (2 Bft) 95,74 %
30.03.2019 01:36 7,8 C 7,8 C 6,7 C 88 % 1022,3 hPa 0,0 l/m 0 min 0 min 0 W/m 6,4 km/h (2 Bft) 91,49 %
30.03.2019 01:38 7,8 C 7,8 C 6,7 C 88 % 1022,3 hPa 0,0 l/m 0 min 0 min 0 W/m 6,4 km/h (2 Bft) 97,87 %
30.03.2019 01:40 7,9 C 7,8 C 6,7 C 88 % 1022,2 hPa 0,0 l/m 0 min 0 min 0 W/m 9,7 km/h (2 Bft) 97,87 %
30.03.2019 01:42 7,9 C 7,8 C 6,7 C 88 % 1022,2 hPa 0,0 l/m 0 min 0 min 0 W/m 3,2 km/h (1 Bft) 93,48 %
30.03.2019 01:44 7,9 C 7,8 C 6,7 C 87 % 1022,2 hPa 0,0 l/m 0 min 0 min 0 W/m 3,2 km/h (1 Bft) 97,87 %
30.03.2019 01:46 7,9 C 7,8 C 6,1 C 87 % 1022,2 hPa 0,0 l/m 0 min 0 min 0 W/m 3,2 km/h (1 Bft) 97,87 %
30.03.2019 01:48 7,9 C 7,8 C 6,7 C 87 % 1022,2 hPa 0,0 l/m 0 min 0 min 0 W/m 6,4 km/h (2 Bft) 95,74 %
30.03.2019 01:50 8,0 C 7,8 C 6,1 C 87 % 1022,2 hPa 0,0 l/m 0 min 0 min 0 W/m 0,0 km/h (0 Bft) 93,62 %
30.03.2019 01:52 8,0 C 7,8 C 6,7 C 87 % 1022,2 hPa 0,0 l/m 0 min 0 min 0 W/m 9,7 km/h (2 Bft) 95,74 %
30.03.2019 01:54 8,0 C 7,8 C 6,7 C 87 % 1022,1 hPa 0,0 l/m 0 min 0 min 0 W/m 6,4 km/h (2 Bft) 95,65 %
30.03.2019 01:56 8,0 C 7,8 C 6,7 C 86 % 1022,1 hPa 0,0 l/m 0 min 0 min 0 W/m 6,4 km/h (2 Bft) 93,62 %
30.03.2019 01:58 8,1 C 7,8 C 6,7 C 86 % 1022,1 hPa 0,0 l/m 0 min 0 min 0 W/m 6,4 km/h (2 Bft) 95,74 %
30.03.2019 02:00 8,1 C 7,8 C 6,7 C 86 % 1022,1 hPa 0,0 l/m 0 min 0 min 0 W/m 3,2 km/h (1 Bft) 95,74 %
30.03.2019 02:02 8,1 C 7,8 C 6,1 C 86 % 1022,0 hPa 0,0 l/m 0 min 0 min 0 W/m 3,2 km/h (1 Bft) 93,62 %
30.03.2019 02:04 8,1 C 7,8 C 6,7 C 86 % 1022,0 hPa 0,0 l/m 0 min 0 min 0 W/m 6,4 km/h (2 Bft) 95,74 %
30.03.2019 02:06 8,1 C 7,2 C 6,1 C 86 % 1021,9 hPa 0,0 l/m 0 min 0 min 0 W/m 6,4 km/h (2 Bft) 93,48 %
30.03.2019 02:08 8,1 C 7,8 C 6,1 C 85 % 1021,9 hPa 0,0 l/m 0 min 0 min 0 W/m 6,4 km/h (2 Bft) 93,62 %
30.03.2019 02:10 8,1 C 7,8 C 6,7 C 85 % 1022,0 hPa 0,0 l/m 0 min 0 min 0 W/m 6,4 km/h (2 Bft) 95,74 %
30.03.2019 02:12 8,1 C 7,8 C 6,1 C 85 % 1021,9 hPa 0,0 l/m 0 min 0 min 0 W/m 6,4 km/h (2 Bft) 93,62 %
30.03.2019 02:14 8,1 C 7,8 C 6,7 C 85 % 1022,0 hPa 0,0 l/m 0 min 0 min 0 W/m 6,4 km/h (2 Bft) 95,74 %
30.03.2019 02:16 8,1 C 7,8 C 6,7 C 85 % 1022,0 hPa 0,0 l/m 0 min 0 min 0 W/m 6,4 km/h (2 Bft) 95,65 %
30.03.2019 02:18 8,1 C 7,8 C 6,7 C 85 % 1021,9 hPa 0,0 l/m 0 min 0 min 0 W/m 6,4 km/h (2 Bft) 95,74 %
30.03.2019 02:20 8,1 C 7,8 C 6,7 C 85 % 1021,9 hPa 0,0 l/m 0 min 0 min 0 W/m 6,4 km/h (2 Bft) 95,74 %
30.03.2019 02:22 8,1 C 7,8 C 6,7 C 85 % 1021,8 hPa 0,0 l/m 0 min 0 min 0 W/m 9,7 km/h (2 Bft) 95,74 %
30.03.2019 02:24 8,1 C 7,8 C 6,7 C 85 % 1021,8 hPa 0,0 l/m 0 min 0 min 0 W/m 6,4 km/h (2 Bft) 95,74 %
30.03.2019 02:26 8,1 C 7,8 C 6,7 C 85 % 1021,8 hPa 0,0 l/m 0 min 0 min 0 W/m 9,7 km/h (2 Bft) 93,62 %
30.03.2019 02:28 8,1 C 7,8 C 6,7 C 85 % 1021,8 hPa 0,0 l/m 0 min 0 min 0 W/m 6,4 km/h (2 Bft) 97,83 %
30.03.2019 02:30 8,1 C 7,2 C 6,7 C 85 % 1021,8 hPa 0,0 l/m 0 min 0 min 0 W/m 6,4 km/h (2 Bft) 97,87 %
30.03.2019 02:32 8,1 C 7,2 C 6,7 C 85 % 1021,8 hPa 0,0 l/m 0 min 0 min 0 W/m 6,4 km/h (2 Bft) 97,87 %
30.03.2019 02:34 8,1 C 7,2 C 6,7 C 85 % 1021,9 hPa 0,0 l/m 0 min 0 min 0 W/m 6,4 km/h (2 Bft) 100,00 %
30.03.2019 02:36 8,1 C 7,2 C 6,7 C 85 % 1021,8 hPa 0,0 l/m 0 min 0 min 0 W/m 6,4 km/h (2 Bft) 97,87 %
30.03.2019 02:38 8,1 C 7,2 C 6,7 C 85 % 1021,8 hPa 0,0 l/m 0 min 0 min 0 W/m 9,7 km/h (2 Bft) 100,00 %
30.03.2019 02:40 8,1 C 7,2 C 6,7 C 85 % 1021,8 hPa 0,0 l/m 0 min 0 min 0 W/m 6,4 km/h (2 Bft) 100,00 %
30.03.2019 02:42 8,1 C 7,2 C 6,1 C 85 % 1021,8 hPa 0,0 l/m 0 min 0 min 0 W/m 6,4 km/h (2 Bft) 100,00 %
30.03.2019 02:44 8,1 C 7,2 C 6,7 C 85 % 1021,8 hPa 0,0 l/m 0 min 0 min 0 W/m 16,1 km/h (3 Bft) 100,00 %
30.03.2019 02:46 8,1 C 7,2 C 6,7 C 85 % 1021,8 hPa 0,0 l/m 0 min 0 min 0 W/m 9,7 km/h (2 Bft) 100,00 %
30.03.2019 02:48 8,0 C 7,2 C 6,7 C 85 % 1021,7 hPa 0,0 l/m 0 min 0 min 0 W/m 9,7 km/h (2 Bft) 100,00 %
30.03.2019 02:50 8,0 C 7,2 C 6,7 C 85 % 1021,8 hPa 0,0 l/m 0 min 0 min 0 W/m 12,9 km/h (3 Bft) 100,00 %
30.03.2019 02:52 8,0 C 7,2 C 6,7 C 85 % 1021,7 hPa 0,0 l/m 0 min 0 min 0 W/m 9,7 km/h (2 Bft) 97,83 %
30.03.2019 02:54 8,0 C 7,2 C 6,7 C 85 % 1021,6 hPa 0,0 l/m 0 min 0 min 0 W/m 6,4 km/h (2 Bft) 100,00 %
30.03.2019 02:56 8,0 C 7,2 C 6,7 C 85 % 1021,7 hPa 0,0 l/m 0 min 0 min 0 W/m 12,9 km/h (3 Bft) 97,87 %
30.03.2019 02:58 8,0 C 7,2 C 6,7 C 84 % 1021,6 hPa 0,0 l/m 0 min 0 min 0 W/m 9,7 km/h (2 Bft) 100,00 %
30.03.2019 03:00 8,0 C 7,2 C 6,7 C 84 % 1021,6 hPa 0,0 l/m 0 min 0 min 0 W/m 9,7 km/h (2 Bft) 100,00 %
30.03.2019 03:02 8,0 C 7,2 C 6,1 C 84 % 1021,6 hPa 0,0 l/m 0 min 0 min 0 W/m 9,7 km/h (2 Bft) 100,00 %
30.03.2019 03:04 7,9 C 7,2 C 6,1 C 84 % 1021,6 hPa 0,0 l/m 0 min 0 min 0 W/m 6,4 km/h (2 Bft) 97,83 %
30.03.2019 03:06 7,9 C 7,2 C 6,1 C 84 % 1021,4 hPa 0,0 l/m 0 min 0 min 0 W/m 6,4 km/h (2 Bft) 100,00 %
30.03.2019 03:08 7,9 C 7,2 C 6,1 C 84 % 1021,5 hPa 0,0 l/m 0 min 0 min 0 W/m 6,4 km/h (2 Bft) 100,00 %
30.03.2019 03:10 7,9 C 7,2 C 6,1 C 84 % 1021,5 hPa 0,0 l/m 0 min 0 min 0 W/m 12,9 km/h (3 Bft) 100,00 %
30.03.2019 03:12 7,9 C 7,2 C 6,1 C 84 % 1021,4 hPa 0,0 l/m 0 min 0 min 0 W/m 6,4 km/h (2 Bft) 100,00 %
30.03.2019 03:14 7,9 C 7,2 C 6,1 C 84 % 1021,4 hPa 0,0 l/m 0 min 0 min 0 W/m 9,7 km/h (2 Bft) 100,00 %
30.03.2019 03:16 7,9 C 7,2 C 6,1 C 84 % 1021,4 hPa 0,0 l/m 0 min 0 min 0 W/m 9,7 km/h (2 Bft) 100,00 %
30.03.2019 03:18 7,8 C 7,2 C 6,1 C 84 % 1021,3 hPa 0,0 l/m 0 min 0 min 0 W/m 6,4 km/h (2 Bft) 100,00 %
30.03.2019 03:20 7,8 C 7,2 C 6,1 C 84 % 1021,4 hPa 0,0 l/m 0 min 0 min 0 W/m 6,4 km/h (2 Bft) 100,00 %
30.03.2019 03:22 7,8 C 7,2 C 6,1 C 84 % 1021,3 hPa 0,0 l/m 0 min 0 min 0 W/m 12,9 km/h (3 Bft) 95,74 %
30.03.2019 03:24 7,8 C 7,2 C 6,1 C 85 % 1021,3 hPa 0,0 l/m 0 min 0 min 0 W/m 9,7 km/h (2 Bft) 100,00 %
30.03.2019 03:26 7,8 C 7,2 C 6,1 C 84 % 1021,3 hPa 0,0 l/m 0 min 0 min 0 W/m 9,7 km/h (2 Bft) 100,00 %
30.03.2019 03:28 7,8 C 7,2 C 6,1 C 84 % 1021,3 hPa 0,0 l/m 0 min 0 min 0 W/m 6,4 km/h (2 Bft) 100,00 %
30.03.2019 03:30 7,8 C 7,2 C 6,1 C 84 % 1021,4 hPa 0,0 l/m 0 min 0 min 0 W/m 9,7 km/h (2 Bft) 100,00 %
30.03.2019 03:32 7,8 C 7,2 C 6,1 C 84 % 1021,3 hPa 0,0 l/m 0 min 0 min 0 W/m 12,9 km/h (3 Bft) 100,00 %
30.03.2019 03:34 7,7 C 7,2 C 6,1 C 85 % 1021,4 hPa 0,0 l/m 0 min 0 min 0 W/m 9,7 km/h (2 Bft) 100,00 %
30.03.2019 03:36 7,7 C 6,7 C 6,1 C 85 % 1021,3 hPa 0,0 l/m 0 min 0 min 0 W/m 9,7 km/h (2 Bft) 100,00 %
30.03.2019 03:38 7,7 C 6,7 C 6,1 C 85 % 1021,3 hPa 0,0 l/m 0 min 0 min 0 W/m 9,7 km/h (2 Bft) 100,00 %
30.03.2019 03:40 7,7 C 6,7 C 6,1 C 85 % 1021,3 hPa 0,0 l/m 0 min 0 min 0 W/m 9,7 km/h (2 Bft) 100,00 %
30.03.2019 03:42 7,7 C 6,7 C 6,1 C 85 % 1021,3 hPa 0,0 l/m 0 min 0 min 0 W/m 9,7 km/h (2 Bft) 97,87 %
30.03.2019 03:44 7,7 C 7,2 C 6,1 C 85 % 1021,3 hPa 0,0 l/m 0 min 0 min 0 W/m 9,7 km/h (2 Bft) 100,00 %
30.03.2019 03:46 7,7 C 6,7 C 6,1 C 85 % 1021,3 hPa 0,0 l/m 0 min 0 min 0 W/m 6,4 km/h (2 Bft) 100,00 %
30.03.2019 03:48 7,7 C 6,7 C 6,1 C 85 % 1021,3 hPa 0,0 l/m 0 min 0 min 0 W/m 6,4 km/h (2 Bft) 100,00 %
30.03.2019 03:50 7,7 C 6,7 C 6,1 C 85 % 1021,3 hPa 0,0 l/m 0 min 0 min 0 W/m 9,7 km/h (2 Bft) 100,00 %
30.03.2019 03:52 7,6 C 6,7 C 6,1 C 85 % 1021,3 hPa 0,0 l/m 0 min 0 min 0 W/m 9,7 km/h (2 Bft) 100,00 %
30.03.2019 03:54 7,6 C 6,7 C 6,1 C 85 % 1021,3 hPa 0,0 l/m 0 min 0 min 0 W/m 12,9 km/h (3 Bft) 100,00 %
30.03.2019 03:56 7,6 C 6,7 C 6,1 C 85 % 1021,3 hPa 0,0 l/m 0 min 0 min 0 W/m 9,7 km/h (2 Bft) 97,87 %
30.03.2019 03:58 7,6 C 6,7 C 6,1 C 85 % 1021,3 hPa 0,0 l/m 0 min 0 min 0 W/m 6,4 km/h (2 Bft) 100,00 %
30.03.2019 04:00 7,6 C 6,7 C 6,1 C 85 % 1021,3 hPa 0,0 l/m 0 min 0 min 0 W/m 6,4 km/h (2 Bft) 97,87 %
30.03.2019 04:02 7,6 C 6,7 C 6,1 C 85 % 1021,3 hPa 0,0 l/m 0 min 0 min 0 W/m 6,4 km/h (2 Bft) 100,00 %
30.03.2019 04:04 7,6 C 6,7 C 6,1 C 85 % 1021,2 hPa 0,0 l/m 0 min 0 min 0 W/m 9,7 km/h (2 Bft) 97,87 %
30.03.2019 04:06 7,6 C 6,7 C 6,1 C 85 % 1021,3 hPa 0,0 l/m 0 min 0 min 0 W/m 6,4 km/h (2 Bft) 97,87 %
30.03.2019 04:08 7,5 C 6,7 C 6,1 C 85 % 1021,2 hPa 0,0 l/m 0 min 0 min 0 W/m 12,9 km/h (3 Bft) 100,00 %
30.03.2019 04:10 7,5 C 6,7 C 6,1 C 85 % 1021,2 hPa 0,0 l/m 0 min 0 min 0 W/m 6,4 km/h (2 Bft) 97,87 %
30.03.2019 04:12 7,5 C 6,7 C 5,6 C 85 % 1021,2 hPa 0,0 l/m 0 min 0 min 0 W/m 9,7 km/h (2 Bft) 97,87 %
30.03.2019 04:14 7,4 C 6,7 C 6,1 C 85 % 1021,2 hPa 0,0 l/m 0 min 0 min 0 W/m 9,7 km/h (2 Bft) 97,83 %
30.03.2019 04:16 7,4 C 6,7 C 6,1 C 85 % 1021,2 hPa 0,0 l/m 0 min 0 min 0 W/m 12,9 km/h (3 Bft) 97,87 %
30.03.2019 04:18 7,4 C 6,7 C 6,1 C 85 % 1021,2 hPa 0,0 l/m 0 min 0 min 0 W/m 6,4 km/h (2 Bft) 97,87 %
30.03.2019 04:20 7,4 C 6,7 C 5,6 C 85 % 1021,1 hPa 0,0 l/m 0 min 0 min 0 W/m 9,7 km/h (2 Bft) 97,87 %
30.03.2019 04:22 7,4 C 6,7 C 5,6 C 85 % 1021,2 hPa 0,0 l/m 0 min 0 min 0 W/m 9,7 km/h (2 Bft) 95,74 %
30.03.2019 04:24 7,4 C 6,7 C 5,6 C 86 % 1021,1 hPa 0,0 l/m 0 min 0 min 0 W/m 12,9 km/h (3 Bft) 95,74 %
30.03.2019 04:26 7,4 C 6,7 C 5,6 C 86 % 1021,1 hPa 0,0 l/m 0 min 0 min 0 W/m 16,1 km/h (3 Bft) 93,48 %
30.03.2019 04:28 7,4 C 6,7 C 5,6 C 86 % 1021,1 hPa 0,0 l/m 0 min 0 min 0 W/m 9,7 km/h (2 Bft) 95,74 %
30.03.2019 04:30 7,4 C 6,7 C 5,6 C 86 % 1021,1 hPa 0,0 l/m 0 min 0 min 0 W/m 12,9 km/h (3 Bft) 95,74 %
30.03.2019 04:32 7,3 C 6,7 C 5,6 C 86 % 1021,1 hPa 0,0 l/m 0 min 0 min 0 W/m 12,9 km/h (3 Bft) 95,74 %
30.03.2019 04:34 7,3 C 6,7 C 5,6 C 86 % 1021,1 hPa 0,0 l/m 0 min 0 min 0 W/m 9,7 km/h (2 Bft) 93,62 %
30.03.2019 04:36 7,3 C 6,7 C 5,6 C 86 % 1021,0 hPa 0,0 l/m 0 min 0 min 0 W/m 12,9 km/h (3 Bft) 93,48 %
30.03.2019 04:38 7,3 C 6,7 C 5,6 C 86 % 1021,0 hPa 0,0 l/m 0 min 0 min 0 W/m 9,7 km/h (2 Bft) 93,62 %
30.03.2019 04:40 7,3 C 6,7 C 5,6 C 86 % 1021,0 hPa 0,0 l/m 0 min 0 min 0 W/m 9,7 km/h (2 Bft) 93,62 %
30.03.2019 04:42 7,3 C 6,7 C 5,6 C 86 % 1021,0 hPa 0,0 l/m 0 min 0 min 0 W/m 9,7 km/h (2 Bft) 93,62 %
30.03.2019 04:44 7,3 C 6,7 C 5,6 C 86 % 1021,0 hPa 0,0 l/m 0 min 0 min 0 W/m 9,7 km/h (2 Bft) 93,62 %
30.03.2019 04:46 7,3 C 6,7 C 5,6 C 86 % 1021,0 hPa 0,0 l/m 0 min 0 min 0 W/m 12,9 km/h (3 Bft) 89,36 %
30.03.2019 04:48 7,3 C 6,7 C 5,6 C 86 % 1021,0 hPa 0,0 l/m 0 min 0 min 0 W/m 12,9 km/h (3 Bft) 91,30 %
30.03.2019 04:50 7,3 C 6,7 C 5,6 C 86 % 1021,0 hPa 0,0 l/m 0 min 0 min 0 W/m 6,4 km/h (2 Bft) 93,62 %
30.03.2019 04:52 7,2 C 6,7 C 5,6 C 86 % 1021,0 hPa 0,0 l/m 0 min 0 min 0 W/m 12,9 km/h (3 Bft) 93,62 %
30.03.2019 04:54 7,2 C 6,7 C 5,6 C 86 % 1021,0 hPa 0,0 l/m 0 min 0 min 0 W/m 9,7 km/h (2 Bft) 95,74 %
30.03.2019 04:56 7,2 C 6,7 C 5,6 C 86 % 1021,0 hPa 0,0 l/m 0 min 0 min 0 W/m 9,7 km/h (2 Bft) 95,74 %
30.03.2019 04:58 7,2 C 6,7 C 5,6 C 87 % 1021,0 hPa 0,0 l/m 0 min 0 min 0 W/m 6,4 km/h (2 Bft) 93,62 %
30.03.2019 05:00 7,2 C 6,7 C 5,6 C 87 % 1020,9 hPa 0,0 l/m 0 min 0 min 0 W/m 9,7 km/h (2 Bft) 91,30 %
30.03.2019 05:02 7,2 C 6,7 C 5,6 C 87 % 1020,9 hPa 0,0 l/m 0 min 0 min 0 W/m 9,7 km/h (2 Bft) 93,62 %
30.03.2019 05:04 7,2 C 6,7 C 5,6 C 87 % 1020,9 hPa 0,0 l/m 0 min 0 min 0 W/m 9,7 km/h (2 Bft) 93,62 %
30.03.2019 05:05 7,2 C 6,7 C 5,6 C 87 % 1020,9 hPa 0,0 l/m 0 min 0 min 0 W/m 9,7 km/h (2 Bft) 97,37 %
30.03.2019 05:10 7,2 C 6,7 C 5,6 C 87 % 1020,8 hPa 0,0 l/m 0 min 0 min 0 W/m 12,9 km/h (3 Bft) 96,49 %
30.03.2019 05:12 7,2 C 6,7 C 5,6 C 87 % 1020,8 hPa 0,0 l/m 0 min 0 min 0 W/m 12,9 km/h (3 Bft) 100,00 %
30.03.2019 05:14 7,2 C 6,7 C 5,6 C 87 % 1020,8 hPa 0,0 l/m 0 min 0 min 0 W/m 9,7 km/h (2 Bft) 95,74 %
30.03.2019 05:19 7,1 C 6,1 C 5,6 C 87 % 1020,8 hPa 0,0 l/m 0 min 0 min 0 W/m 6,4 km/h (2 Bft) 95,52 %
30.03.2019 05:20 7,1 C 6,1 C 5,6 C 87 % 1020,8 hPa 0,0 l/m 0 min 0 min 0 W/m 6,4 km/h (2 Bft) 91,30 %
30.03.2019 05:22 7,1 C 6,1 C 5,6 C 86 % 1020,8 hPa 0,0 l/m 0 min 0 min 0 W/m 16,1 km/h (3 Bft) 93,62 %
30.03.2019 05:24 7,1 C 6,1 C 5,6 C 86 % 1020,8 hPa 0,0 l/m 0 min 0 min 0 W/m 6,4 km/h (2 Bft) 93,62 %
30.03.2019 05:26 7,1 C 6,1 C 5,6 C 86 % 1020,8 hPa 0,0 l/m 0 min 0 min 0 W/m 6,4 km/h (2 Bft) 100,00 %
30.03.2019 05:28 7,1 C 6,1 C 5,6 C 86 % 1020,7 hPa 0,0 l/m 0 min 0 min 0 W/m 6,4 km/h (2 Bft) 100,00 %
30.03.2019 05:30 7,1 C 6,1 C 5,6 C 86 % 1020,7 hPa 0,0 l/m 0 min 0 min 0 W/m 6,4 km/h (2 Bft) 97,87 %
30.03.2019 05:32 7,1 C 6,1 C 5,6 C 86 % 1020,7 hPa 0,0 l/m 0 min 0 min 0 W/m 9,7 km/h (2 Bft) 100,00 %
30.03.2019 05:34 7,0 C 6,1 C 5,6 C 86 % 1020,7 hPa 0,0 l/m 0 min 0 min 0 W/m 6,4 km/h (2 Bft) 100,00 %
30.03.2019 05:36 7,0 C 6,1 C 5,6 C 86 % 1020,6 hPa 0,0 l/m 0 min 0 min 0 W/m 9,7 km/h (2 Bft) 97,87 %
30.03.2019 05:38 7,0 C 6,1 C 5,6 C 86 % 1020,6 hPa 0,0 l/m 0 min 0 min 0 W/m 9,7 km/h (2 Bft) 100,00 %
30.03.2019 05:40 7,0 C 6,1 C 5,6 C 86 % 1020,6 hPa 0,0 l/m 0 min 0 min 0 W/m 6,4 km/h (2 Bft) 97,83 %
30.03.2019 05:42 7,0 C 6,1 C 5,6 C 86 % 1020,6 hPa 0,0 l/m 0 min 0 min 0 W/m 9,7 km/h (2 Bft) 100,00 %
30.03.2019 05:44 6,9 C 6,1 C 5,6 C 86 % 1020,6 hPa 0,0 l/m 0 min 0 min 0 W/m 12,9 km/h (3 Bft) 97,87 %
30.03.2019 05:46 6,9 C 6,1 C 5,6 C 86 % 1020,6 hPa 0,0 l/m 0 min 0 min 0 W/m 6,4 km/h (2 Bft) 97,87 %
30.03.2019 05:48 6,9 C 6,1 C 5,6 C 86 % 1020,6 hPa 0,0 l/m 0 min 0 min 0 W/m 12,9 km/h (3 Bft) 100,00 %
30.03.2019 05:50 6,9 C 6,1 C 5,6 C 87 % 1020,6 hPa 0,0 l/m 0 min 0 min 0 W/m 9,7 km/h (2 Bft) 100,00 %
30.03.2019 05:52 6,9 C 6,1 C 5,6 C 87 % 1020,5 hPa 0,0 l/m 0 min 0 min 0 W/m 9,7 km/h (2 Bft) 100,00 %
30.03.2019 05:54 6,9 C 6,1 C 5,6 C 87 % 1020,5 hPa 0,0 l/m 0 min 0 min 0 W/m 6,4 km/h (2 Bft) 100,00 %
30.03.2019 05:56 6,9 C 6,1 C 5,6 C 87 % 1020,5 hPa 0,0 l/m 0 min 0 min 0 W/m 9,7 km/h (2 Bft) 100,00 %
30.03.2019 05:58 6,9 C 6,1 C 5,6 C 87 % 1020,5 hPa 0,0 l/m 0 min 0 min 0 W/m 9,7 km/h (2 Bft) 100,00 %
30.03.2019 06:00 6,9 C 6,1 C 5,6 C 87 % 1020,4 hPa 0,0 l/m 0 min 0 min 0 W/m 12,9 km/h (3 Bft) 100,00 %
30.03.2019 06:02 6,8 C 6,1 C 5,6 C 87 % 1020,4 hPa 0,0 l/m 0 min 0 min 0 W/m 9,7 km/h (2 Bft) 100,00 %
30.03.2019 06:04 6,8 C 6,1 C 5,6 C 87 % 1020,5 hPa 0,0 l/m 0 min 0 min 0 W/m 6,4 km/h (2 Bft) 100,00 %
30.03.2019 06:08 6,8 C 6,1 C 5,6 C 87 % 1020,5 hPa 0,0 l/m 0 min 0 min 0 W/m 9,7 km/h (2 Bft) 100,00 %
30.03.2019 06:10 6,8 C 6,1 C 5,6 C 87 % 1020,5 hPa 0,0 l/m 0 min 0 min 0 W/m 9,7 km/h (2 Bft) 100,00 %
30.03.2019 06:12 6,8 C 6,1 C 5,6 C 87 % 1020,4 hPa 0,0 l/m 0 min 0 min 0 W/m 9,7 km/h (2 Bft) 100,00 %
30.03.2019 06:14 6,8 C 6,1 C 5,6 C 87 % 1020,4 hPa 0,0 l/m 0 min 0 min 0 W/m 16,1 km/h (3 Bft) 97,83 %
30.03.2019 06:16 6,8 C 6,1 C 5,6 C 87 % 1020,5 hPa 0,0 l/m 0 min 0 min 0 W/m 9,7 km/h (2 Bft) 100,00 %
30.03.2019 06:18 6,8 C 6,1 C 5,6 C 87 % 1020,4 hPa 0,0 l/m 0 min 0 min 5 W/m 9,7 km/h (2 Bft) 97,87 %
30.03.2019 06:20 6,8 C 6,1 C 5,6 C 87 % 1020,4 hPa 0,0 l/m 0 min 0 min 5 W/m 9,7 km/h (2 Bft) 97,87 %
30.03.2019 06:22 6,8 C 6,7 C 5,6 C 87 % 1020,4 hPa 0,0 l/m 0 min 0 min 7 W/m 12,9 km/h (3 Bft) 97,87 %
30.03.2019 06:24 6,8 C 6,7 C 5,6 C 87 % 1020,4 hPa 0,0 l/m 0 min 0 min 8 W/m 12,9 km/h (3 Bft) 97,87 %
30.03.2019 06:26 6,8 C 6,7 C 5,6 C 87 % 1020,3 hPa 0,0 l/m 0 min 0 min 9 W/m 12,9 km/h (3 Bft) 97,87 %
30.03.2019 06:28 6,9 C 6,7 C 5,6 C 87 % 1020,4 hPa 0,0 l/m 0 min 0 min 11 W/m 9,7 km/h (2 Bft) 97,83 %
30.03.2019 06:30 6,9 C 6,7 C 5,6 C 87 % 1020,4 hPa 0,0 l/m 0 min 0 min 11 W/m 12,9 km/h (3 Bft) 97,87 %
30.03.2019 06:32 6,9 C 6,7 C 5,6 C 87 % 1020,4 hPa 0,0 l/m 0 min 0 min 12 W/m 9,7 km/h (2 Bft) 100,00 %
30.03.2019 06:34 6,9 C 6,7 C 5,6 C 87 % 1020,4 hPa 0,0 l/m 0 min 0 min 13 W/m 9,7 km/h (2 Bft) 100,00 %
30.03.2019 06:36 6,9 C 6,7 C 6,1 C 87 % 1020,3 hPa 0,0 l/m 0 min 0 min 14 W/m 9,7 km/h (2 Bft) 100,00 %
30.03.2019 06:38 6,9 C 6,7 C 6,1 C 87 % 1020,3 hPa 0,0 l/m 0 min 0 min 14 W/m 12,9 km/h (3 Bft) 97,83 %
30.03.2019 06:40 6,9 C 6,7 C 6,1 C 87 % 1020,3 hPa 0,0 l/m 0 min 0 min 16 W/m 16,1 km/h (3 Bft) 97,87 %
30.03.2019 06:42 6,9 C 6,7 C 6,1 C 87 % 1020,3 hPa 0,0 l/m 0 min 0 min 16 W/m 12,9 km/h (3 Bft) 95,74 %
30.03.2019 06:44 7,0 C 6,7 C 6,1 C 87 % 1020,3 hPa 0,0 l/m 0 min 0 min 17 W/m 6,4 km/h (2 Bft) 97,87 %
30.03.2019 06:46 7,0 C 6,7 C 6,1 C 87 % 1020,3 hPa 0,0 l/m 0 min 0 min 18 W/m 16,1 km/h (3 Bft) 95,74 %
30.03.2019 06:48 7,0 C 6,7 C 6,1 C 87 % 1020,3 hPa 0,0 l/m 0 min 0 min 19 W/m 9,7 km/h (2 Bft) 97,87 %
30.03.2019 06:50 7,1 C 6,7 C 6,1 C 87 % 1020,3 hPa 0,0 l/m 0 min 0 min 20 W/m 9,7 km/h (2 Bft) 97,83 %
30.03.2019 06:52 7,1 C 6,7 C 6,1 C 87 % 1020,3 hPa 0,0 l/m 0 min 0 min 22 W/m 12,9 km/h (3 Bft) 97,87 %
30.03.2019 06:54 7,1 C 6,7 C 6,1 C 87 % 1020,3 hPa 0,0 l/m 0 min 0 min 23 W/m 19,3 km/h (3 Bft) 97,87 %
30.03.2019 06:56 7,1 C 6,7 C 6,1 C 87 % 1020,3 hPa 0,0 l/m 0 min 0 min 24 W/m 12,9 km/h (3 Bft) 95,74 %
30.03.2019 06:58 7,1 C 6,7 C 6,1 C 87 % 1020,2 hPa 0,0 l/m 0 min 0 min 25 W/m 16,1 km/h (3 Bft) 97,87 %
30.03.2019 07:00 7,1 C 6,7 C 6,1 C 87 % 1020,2 hPa 0,0 l/m 0 min 0 min 26 W/m 16,1 km/h (3 Bft) 97,87 %
30.03.2019 07:02 7,2 C 7,2 C 6,1 C 87 % 1020,2 hPa 0,0 l/m 0 min 0 min 26 W/m 12,9 km/h (3 Bft) 97,14 %
30.03.2019 07:04 7,2 C 7,2 C 6,1 C 87 % 1020,2 hPa 0,0 l/m 0 min 0 min 27 W/m 9,7 km/h (2 Bft) 97,87 %
30.03.2019 07:06 7,2 C 7,2 C 6,1 C 87 % 1020,3 hPa 0,0 l/m 0 min 0 min 28 W/m 19,3 km/h (3 Bft) 96,55 %
30.03.2019 07:08 7,2 C 7,2 C 6,1 C 87 % 1020,2 hPa 0,0 l/m 0 min 0 min 28 W/m 9,7 km/h (2 Bft) 97,14 %
30.03.2019 07:10 7,2 C 7,2 C 6,1 C 87 % 1020,4 hPa 0,0 l/m 0 min 0 min 28 W/m 16,1 km/h (3 Bft) 97,87 %
30.03.2019 07:12 7,2 C 7,2 C 6,7 C 87 % 1020,3 hPa 0,0 l/m 0 min 0 min 30 W/m 12,9 km/h (3 Bft) 95,74 %
30.03.2019 07:14 7,3 C 7,2 C 6,1 C 87 % 1020,3 hPa 0,0 l/m 0 min 0 min 30 W/m 9,7 km/h (2 Bft) 97,87 %
30.03.2019 07:16 7,3 C 7,2 C 6,1 C 86 % 1020,2 hPa 0,0 l/m 0 min 0 min 30 W/m 16,1 km/h (3 Bft) 97,83 %
30.03.2019 07:18 7,3 C 7,2 C 6,7 C 86 % 1020,3 hPa 0,0 l/m 0 min 0 min 31 W/m 25,7 km/h (4 Bft) 97,87 %
30.03.2019 07:20 7,3 C 7,2 C 6,7 C 86 % 1020,3 hPa 0,0 l/m 0 min 0 min 32 W/m 16,1 km/h (3 Bft) 95,74 %
30.03.2019 07:22 7,4 C 7,2 C 6,7 C 86 % 1020,3 hPa 0,0 l/m 0 min 0 min 32 W/m 16,1 km/h (3 Bft) 100,00 %
30.03.2019 07:24 7,4 C 7,2 C 6,7 C 86 % 1020,3 hPa 0,0 l/m 0 min 0 min 33 W/m 16,1 km/h (3 Bft) 97,87 %
30.03.2019 07:26 7,4 C 7,2 C 6,7 C 86 % 1020,2 hPa 0,0 l/m 0 min 0 min 33 W/m 22,5 km/h (4 Bft) 95,74 %
30.03.2019 07:28 7,5 C 7,2 C 6,7 C 86 % 1020,2 hPa 0,0 l/m 0 min 0 min 35 W/m 22,5 km/h (4 Bft) 97,83 %
30.03.2019 07:30 7,5 C 7,2 C 6,7 C 86 % 1020,2 hPa 0,0 l/m 0 min 0 min 35 W/m 29,0 km/h (5 Bft) 97,87 %
30.03.2019 07:32 7,6 C 7,2 C 6,7 C 86 % 1020,2 hPa 0,0 l/m 0 min 0 min 36 W/m 19,3 km/h (3 Bft) 96,30 %
30.03.2019 07:34 7,6 C 7,2 C 6,7 C 86 % 1020,2 hPa 0,0 l/m 0 min 0 min 37 W/m 19,3 km/h (3 Bft) 97,87 %
30.03.2019 07:36 7,6 C 7,2 C 6,7 C 86 % 1020,3 hPa 0,0 l/m 0 min 0 min 38 W/m 25,7 km/h (4 Bft) 93,62 %
30.03.2019 07:38 7,6 C 7,8 C 6,7 C 86 % 1020,3 hPa 0,0 l/m 0 min 0 min 39 W/m 22,5 km/h (4 Bft) 95,74 %
30.03.2019 07:40 7,7 C 7,8 C 6,7 C 86 % 1020,3 hPa 0,0 l/m 0 min 0 min 39 W/m 16,1 km/h (3 Bft) 95,65 %
30.03.2019 07:42 7,7 C 7,8 C 6,7 C 86 % 1020,1 hPa 0,0 l/m 0 min 0 min 40 W/m 19,3 km/h (3 Bft) 97,87 %
30.03.2019 07:44 7,7 C 7,8 C 7,2 C 86 % 1020,1 hPa 0,0 l/m 0 min 0 min 40 W/m 16,1 km/h (3 Bft) 97,87 %
30.03.2019 07:46 7,8 C 7,8 C 7,2 C 86 % 1020,3 hPa 0,0 l/m 0 min 0 min 42 W/m 22,5 km/h (4 Bft) 95,74 %
30.03.2019 07:48 7,8 C 7,8 C 7,2 C 86 % 1020,2 hPa 0,0 l/m 0 min 0 min 42 W/m 19,3 km/h (3 Bft) 97,87 %
30.03.2019 07:50 7,8 C 7,8 C 7,2 C 86 % 1020,2 hPa 0,0 l/m 0 min 0 min 44 W/m 22,5 km/h (4 Bft) 97,87 %
30.03.2019 07:52 7,9 C 7,8 C 7,2 C 85 % 1020,1 hPa 0,0 l/m 0 min 0 min 45 W/m 16,1 km/h (3 Bft) 97,83 %
30.03.2019 07:54 7,9 C 7,8 C 7,2 C 85 % 1020,1 hPa 0,0 l/m 0 min 0 min 46 W/m 19,3 km/h (3 Bft) 97,87 %
30.03.2019 07:56 7,9 C 7,8 C 7,2 C 85 % 1020,1 hPa 0,0 l/m 0 min 0 min 47 W/m 19,3 km/h (3 Bft) 97,87 %
30.03.2019 07:58 8,0 C 7,8 C 7,2 C 85 % 1020,1 hPa 0,0 l/m 0 min 0 min 47 W/m 19,3 km/h (3 Bft) 95,74 %
30.03.2019 08:00 8,0 C 7,8 C 7,2 C 85 % 1020,3 hPa 0,0 l/m 0 min 0 min 49 W/m 22,5 km/h (4 Bft) 95,74 %
30.03.2019 08:02 8,1 C 8,3 C 7,2 C 85 % 1020,3 hPa 0,0 l/m 0 min 0 min 49 W/m 12,9 km/h (3 Bft) 95,74 %
30.03.2019 08:04 8,1 C 8,3 C 7,2 C 85 % 1020,3 hPa 0,0 l/m 0 min 0 min 51 W/m 19,3 km/h (3 Bft) 95,74 %
30.03.2019 08:06 8,2 C 8,3 C 7,2 C 85 % 1020,3 hPa 0,0 l/m 0 min 0 min 52 W/m 16,1 km/h (3 Bft) 95,74 %
30.03.2019 08:08 8,2 C 8,3 C 7,2 C 85 % 1020,3 hPa 0,0 l/m 0 min 0 min 53 W/m 16,1 km/h (3 Bft) 97,87 %
30.03.2019 08:10 8,2 C 8,3 C 7,8 C 85 % 1020,3 hPa 0,0 l/m 0 min 0 min 53 W/m 16,1 km/h (3 Bft) 97,87 %
30.03.2019 08:12 8,2 C 8,3 C 7,8 C 85 % 1020,3 hPa 0,0 l/m 0 min 0 min 54 W/m 22,5 km/h (4 Bft) 97,87 %
30.03.2019 08:14 8,3 C 8,3 C 7,8 C 85 % 1020,3 hPa 0,0 l/m 0 min 0 min 54 W/m 19,3 km/h (3 Bft) 97,83 %
30.03.2019 08:16 8,3 C 8,3 C 7,8 C 85 % 1020,3 hPa 0,0 l/m 0 min 0 min 55 W/m 16,1 km/h (3 Bft) 95,74 %
30.03.2019 08:18 8,3 C 8,3 C 7,8 C 84 % 1020,3 hPa 0,0 l/m 0 min 0 min 56 W/m 19,3 km/h (3 Bft) 93,62 %
30.03.2019 08:20 8,4 C 8,3 C 7,8 C 84 % 1020,3 hPa 0,0 l/m 0 min 0 min 57 W/m 12,9 km/h (3 Bft) 95,74 %
30.03.2019 08:22 8,4 C 8,9 C 7,8 C 84 % 1020,4 hPa 0,0 l/m 0 min 0 min 58 W/m 16,1 km/h (3 Bft) 97,87 %
30.03.2019 08:24 8,4 C 8,9 C 7,8 C 84 % 1020,4 hPa 0,0 l/m 0 min 0 min 58 W/m 12,9 km/h (3 Bft) 97,87 %
30.03.2019 08:26 8,5 C 8,9 C 8,3 C 84 % 1020,4 hPa 0,0 l/m 0 min 0 min 59 W/m 12,9 km/h (3 Bft) 97,83 %
30.03.2019 08:28 8,6 C 8,9 C 8,3 C 84 % 1020,4 hPa 0,0 l/m 0 min 0 min 60 W/m 9,7 km/h (2 Bft) 97,87 %
30.03.2019 08:30 8,6 C 9,4 C 8,3 C 84 % 1020,4 hPa 0,0 l/m 0 min 0 min 60 W/m 9,7 km/h (2 Bft) 97,87 %
30.03.2019 08:32 8,7 C 10,6 C 8,3 C 84 % 1020,4 hPa 0,0 l/m 0 min 0 min 60 W/m 16,1 km/h (3 Bft) 97,87 %
30.03.2019 08:34 8,7 C 11,7 C 8,3 C 84 % 1020,4 hPa 0,0 l/m 0 min 0 min 60 W/m 16,1 km/h (3 Bft) 97,87 %
30.03.2019 08:36 8,8 C 12,8 C 8,3 C 84 % 1020,3 hPa 0,0 l/m 0 min 0 min 60 W/m 9,7 km/h (2 Bft) 97,87 %
30.03.2019 08:38 8,9 C 13,9 C 8,3 C 84 % 1020,4 hPa 0,0 l/m 0 min 0 min 61 W/m 9,7 km/h (2 Bft) 93,48 %
30.03.2019 08:40 9,0 C 13,9 C 8,9 C 84 % 1020,4 hPa 0,0 l/m 0 min 0 min 64 W/m 9,7 km/h (2 Bft) 95,74 %
30.03.2019 08:42 9,1 C 14,4 C 8,9 C 84 % 1020,5 hPa 0,0 l/m 0 min 0 min 72 W/m 9,7 km/h (2 Bft) 97,87 %
30.03.2019 08:44 9,2 C 14,4 C 8,9 C 84 % 1020,4 hPa 0,0 l/m 0 min 0 min 86 W/m 9,7 km/h (2 Bft) 95,74 %
30.03.2019 08:46 9,4 C 15,0 C 9,4 C 84 % 1020,4 hPa 0,0 l/m 0 min 0 min 106 W/m 9,7 km/h (2 Bft) 97,87 %
30.03.2019 08:48 9,6 C 14,4 C 9,4 C 83 % 1020,4 hPa 0,0 l/m 0 min 0 min 126 W/m 16,1 km/h (3 Bft) 97,87 %
30.03.2019 08:50 9,8 C 15,0 C 9,4 C 83 % 1020,4 hPa 0,0 l/m 0 min 0 min 161 W/m 12,9 km/h (3 Bft) 100,00 %
30.03.2019 08:52 9,9 C 14,4 C 9,4 C 82 % 1020,4 hPa 0,0 l/m 2 min 0 min 197 W/m 12,9 km/h (3 Bft) 97,87 %
30.03.2019 08:54 10,1 C 14,4 C 10,0 C 82 % 1020,3 hPa 0,0 l/m 2 min 0 min 232 W/m 16,1 km/h (3 Bft) 100,00 %
30.03.2019 08:56 10,3 C 14,4 C 12,2 C 81 % 1020,4 hPa 0,0 l/m 2 min 0 min 271 W/m 12,9 km/h (3 Bft) 100,00 %
30.03.2019 08:58 10,5 C 15,0 C 13,3 C 80 % 1020,4 hPa 0,0 l/m 2 min 0 min 305 W/m 12,9 km/h (3 Bft) 100,00 %
30.03.2019 09:00 10,7 C 15,6 C 14,4 C 80 % 1020,4 hPa 0,0 l/m 2 min 0 min 336 W/m 16,1 km/h (3 Bft) 100,00 %
30.03.2019 09:02 10,8 C 16,1 C 15,0 C 80 % 1020,4 hPa 0,0 l/m 2 min 0 min 362 W/m 12,9 km/h (3 Bft) 100,00 %
30.03.2019 09:04 11,0 C 16,1 C 15,0 C 80 % 1020,4 hPa 0,0 l/m 2 min 0 min 380 W/m 12,9 km/h (3 Bft) 100,00 %
30.03.2019 09:06 11,2 C 16,7 C 15,6 C 79 % 1020,3 hPa 0,0 l/m 2 min 0 min 394 W/m 9,7 km/h (2 Bft) 100,00 %
30.03.2019 09:08 11,3 C 16,1 C 16,1 C 78 % 1020,4 hPa 0,0 l/m 2 min 0 min 402 W/m 12,9 km/h (3 Bft) 100,00 %
30.03.2019 09:10 11,4 C 16,1 C 15,6 C 78 % 1020,4 hPa 0,0 l/m 2 min 0 min 407 W/m 16,1 km/h (3 Bft) 100,00 %
30.03.2019 09:12 11,6 C 15,6 C 15,6 C 77 % 1020,3 hPa 0,0 l/m 2 min 0 min 413 W/m 16,1 km/h (3 Bft) 100,00 %
30.03.2019 09:14 11,7 C 16,7 C 16,7 C 77 % 1020,3 hPa 0,0 l/m 2 min 0 min 419 W/m 6,4 km/h (2 Bft) 100,00 %
30.03.2019 09:16 11,8 C 16,7 C 16,7 C 77 % 1020,3 hPa 0,0 l/m 2 min 0 min 425 W/m 12,9 km/h (3 Bft) 100,00 %
30.03.2019 09:18 12,0 C 17,2 C 16,7 C 76 % 1020,4 hPa 0,0 l/m 2 min 0 min 430 W/m 9,7 km/h (2 Bft) 100,00 %
30.03.2019 09:20 12,2 C 16,7 C 16,7 C 76 % 1020,4 hPa 0,0 l/m 2 min 0 min 435 W/m 16,1 km/h (3 Bft) 100,00 %
30.03.2019 09:22 12,3 C 16,7 C 17,2 C 75 % 1020,4 hPa 0,0 l/m 2 min 0 min 439 W/m 12,9 km/h (3 Bft) 100,00 %
30.03.2019 09:24 12,4 C 17,2 C 17,2 C 75 % 1020,3 hPa 0,0 l/m 2 min 0 min 444 W/m 12,9 km/h (3 Bft) 100,00 %
30.03.2019 09:26 12,6 C 17,2 C 17,8 C 75 % 1020,3 hPa 0,0 l/m 2 min 0 min 449 W/m 9,7 km/h (2 Bft) 97,87 %
30.03.2019 09:28 12,7 C 17,2 C 17,8 C 74 % 1020,4 hPa 0,0 l/m 2 min 0 min 454 W/m 16,1 km/h (3 Bft) 100,00 %
30.03.2019 09:30 12,8 C 16,7 C 17,8 C 74 % 1020,4 hPa 0,0 l/m 2 min 0 min 460 W/m 12,9 km/h (3 Bft) 100,00 %
30.03.2019 09:32 13,0 C 17,8 C 17,8 C 74 % 1020,3 hPa 0,0 l/m 2 min 0 min 466 W/m 12,9 km/h (3 Bft) 95,74 %
30.03.2019 09:34 13,1 C 17,2 C 17,2 C 73 % 1020,3 hPa 0,0 l/m 2 min 0 min 472 W/m 12,9 km/h (3 Bft) 100,00 %
30.03.2019 09:36 13,2 C 17,8 C 17,2 C 73 % 1020,2 hPa 0,0 l/m 2 min 0 min 478 W/m 12,9 km/h (3 Bft) 100,00 %
30.03.2019 09:38 13,3 C 18,9 C 18,3 C 73 % 1020,2 hPa 0,0 l/m 2 min 0 min 483 W/m 12,9 km/h (3 Bft) 97,87 %
30.03.2019 09:40 13,4 C 18,3 C 18,3 C 72 % 1020,2 hPa 0,0 l/m 2 min 0 min 488 W/m 12,9 km/h (3 Bft) 100,00 %
30.03.2019 09:42 13,5 C 18,9 C 18,9 C 72 % 1020,3 hPa 0,0 l/m 2 min 0 min 493 W/m 9,7 km/h (2 Bft) 97,87 %
30.03.2019 09:44 13,7 C 18,9 C 19,4 C 71 % 1020,2 hPa 0,0 l/m 2 min 0 min 496 W/m 12,9 km/h (3 Bft) 97,87 %
30.03.2019 09:46 13,8 C 19,4 C 19,4 C 71 % 1020,2 hPa 0,0 l/m 2 min 0 min 501 W/m 12,9 km/h (3 Bft) 97,87 %
30.03.2019 09:48 13,9 C 19,4 C 19,4 C 70 % 1020,1 hPa 0,0 l/m 2 min 0 min 506 W/m 9,7 km/h (2 Bft) 97,83 %
30.03.2019 09:50 14,2 C 19,4 C 19,4 C 70 % 1020,2 hPa 0,0 l/m 2 min 0 min 510 W/m 12,9 km/h (3 Bft) 97,87 %
30.03.2019 09:52 14,2 C 19,4 C 18,9 C 69 % 1020,2 hPa 0,0 l/m 2 min 0 min 515 W/m 19,3 km/h (3 Bft) 95,74 %
30.03.2019 09:54 14,2 C 18,9 C 19,4 C 68 % 1020,2 hPa 0,0 l/m 2 min 0 min 520 W/m 12,9 km/h (3 Bft) 97,87 %
30.03.2019 09:56 14,4 C 18,9 C 19,4 C 68 % 1020,2 hPa 0,0 l/m 2 min 0 min 527 W/m 16,1 km/h (3 Bft) 97,87 %
30.03.2019 09:58 14,6 C 18,9 C 19,4 C 67 % 1020,1 hPa 0,0 l/m 2 min 0 min 533 W/m 19,3 km/h (3 Bft) 95,74 %
30.03.2019 10:00 14,7 C 18,9 C 20,0 C 67 % 1020,1 hPa 0,0 l/m 2 min 0 min 537 W/m 12,9 km/h (3 Bft) 97,83 %
30.03.2019 10:02 14,8 C 18,9 C 19,4 C 67 % 1020,1 hPa 0,0 l/m 2 min 0 min 542 W/m 19,3 km/h (3 Bft) 97,87 %
30.03.2019 10:04 14,9 C 20,0 C 20,0 C 66 % 1020,1 hPa 0,0 l/m 2 min 0 min 547 W/m 22,5 km/h (4 Bft) 97,87 %
30.03.2019 10:06 15,0 C 19,4 C 18,9 C 66 % 1020,1 hPa 0,0 l/m 2 min 0 min 551 W/m 16,1 km/h (3 Bft) 95,74 %
30.03.2019 10:08 15,1 C 19,4 C 19,4 C 66 % 1020,1 hPa 0,0 l/m 2 min 0 min 554 W/m 19,3 km/h (3 Bft) 95,74 %
30.03.2019 10:10 15,2 C 20,0 C 20,6 C 65 % 1020,2 hPa 0,0 l/m 2 min 0 min 554 W/m 12,9 km/h (3 Bft) 97,87 %
30.03.2019 10:12 15,3 C 20,0 C 20,6 C 65 % 1020,1 hPa 0,0 l/m 2 min 0 min 558 W/m 19,3 km/h (3 Bft) 97,83 %
30.03.2019 10:14 15,4 C 20,0 C 20,0 C 64 % 1020,1 hPa 0,0 l/m 2 min 0 min 561 W/m 16,1 km/h (3 Bft) 97,87 %
30.03.2019 10:16 15,6 C 21,1 C 20,6 C 64 % 1020,0 hPa 0,0 l/m 2 min 0 min 566 W/m 16,1 km/h (3 Bft) 95,74 %
30.03.2019 10:18 15,7 C 20,0 C 20,0 C 63 % 1020,1 hPa 0,0 l/m 2 min 0 min 572 W/m 19,3 km/h (3 Bft) 97,87 %
30.03.2019 10:20 15,8 C 20,6 C 18,9 C 63 % 1020,1 hPa 0,0 l/m 2 min 0 min 573 W/m 9,7 km/h (2 Bft) 97,87 %
30.03.2019 10:22 15,9 C 20,0 C 17,8 C 62 % 1020,1 hPa 0,0 l/m 2 min 0 min 574 W/m 16,1 km/h (3 Bft) 97,83 %
30.03.2019 10:24 16,0 C 21,7 C 17,2 C 62 % 1020,1 hPa 0,0 l/m 2 min 0 min 579 W/m 6,4 km/h (2 Bft) 100,00 %
30.03.2019 10:26 16,1 C 21,7 C 17,2 C 62 % 1020,1 hPa 0,0 l/m 2 min 0 min 584 W/m 12,9 km/h (3 Bft) 100,00 %
30.03.2019 10:28 16,2 C 21,7 C 16,7 C 61 % 1020,1 hPa 0,0 l/m 2 min 0 min 586 W/m 12,9 km/h (3 Bft) 100,00 %
30.03.2019 10:30 16,3 C 22,2 C 16,7 C 61 % 1020,1 hPa 0,0 l/m 2 min 0 min 589 W/m 12,9 km/h (3 Bft) 95,74 %
30.03.2019 10:32 16,4 C 23,9 C 16,7 C 62 % 1020,0 hPa 0,0 l/m 2 min 0 min 594 W/m 9,7 km/h (2 Bft) 97,92 %
30.03.2019 10:34 16,6 C 23,3 C 16,7 C 61 % 1020,1 hPa 0,0 l/m 2 min 0 min 599 W/m 16,1 km/h (3 Bft) 100,00 %
30.03.2019 10:36 16,7 C 22,2 C 16,1 C 59 % 1020,0 hPa 0,0 l/m 2 min 0 min 605 W/m 16,1 km/h (3 Bft) 97,87 %
30.03.2019 10:38 16,8 C 22,2 C 16,1 C 59 % 1020,0 hPa 0,0 l/m 2 min 0 min 606 W/m 12,9 km/h (3 Bft) 97,87 %
30.03.2019 10:40 16,9 C 23,9 C 16,7 C 60 % 1020,0 hPa 0,0 l/m 2 min 0 min 613 W/m 3,2 km/h (1 Bft) 97,87 %
30.03.2019 10:42 17,1 C 25,0 C 17,2 C 60 % 1020,0 hPa 0,0 l/m 2 min 0 min 614 W/m 6,4 km/h (2 Bft) 97,87 %
30.03.2019 10:44 17,1 C 23,9 C 16,7 C 59 % 1019,9 hPa 0,0 l/m 2 min 0 min 618 W/m 12,9 km/h (3 Bft) 97,87 %
30.03.2019 10:46 17,2 C 23,3 C 16,7 C 59 % 1019,9 hPa 0,0 l/m 2 min 0 min 621 W/m 16,1 km/h (3 Bft) 97,83 %
30.03.2019 10:48 17,3 C 22,8 C 16,7 C 59 % 1019,8 hPa 0,0 l/m 2 min 0 min 629 W/m 9,7 km/h (2 Bft) 95,74 %
30.03.2019 10:50 17,4 C 22,8 C 16,7 C 58 % 1019,8 hPa 0,0 l/m 2 min 0 min 634 W/m 16,1 km/h (3 Bft) 93,62 %
30.03.2019 10:52 17,5 C 22,2 C 16,7 C 57 % 1019,9 hPa 0,0 l/m 2 min 0 min 636 W/m 22,5 km/h (4 Bft) 97,87 %
30.03.2019 10:54 17,6 C 22,8 C 16,7 C 56 % 1019,8 hPa 0,0 l/m 2 min 0 min 640 W/m 9,7 km/h (2 Bft) 97,87 %
30.03.2019 10:56 17,6 C 23,3 C 16,7 C 57 % 1019,9 hPa 0,0 l/m 2 min 0 min 643 W/m 6,4 km/h (2 Bft) 97,96 %
30.03.2019 10:58 17,7 C 23,9 C 16,7 C 56 % 1019,8 hPa 0,0 l/m 2 min 0 min 646 W/m 12,9 km/h (3 Bft) 95,74 %
30.03.2019 11:00 17,8 C 23,3 C 17,2 C 56 % 1019,8 hPa 0,0 l/m 2 min 0 min 649 W/m 16,1 km/h (3 Bft) 95,74 %
30.03.2019 11:02 17,8 C 22,2 C 16,7 C 55 % 1019,8 hPa 0,0 l/m 2 min 0 min 649 W/m 16,1 km/h (3 Bft) 95,74 %
30.03.2019 11:04 17,9 C 22,8 C 16,7 C 55 % 1019,9 hPa 0,0 l/m 2 min 0 min 651 W/m 16,1 km/h (3 Bft) 97,87 %
30.03.2019 11:06 17,9 C 22,8 C 16,7 C 56 % 1019,7 hPa 0,0 l/m 2 min 0 min 660 W/m 12,9 km/h (3 Bft) 93,62 %
30.03.2019 11:08 18,0 C 23,3 C 16,7 C 56 % 1019,8 hPa 0,0 l/m 2 min 0 min 661 W/m 9,7 km/h (2 Bft) 95,65 %
30.03.2019 11:10 18,0 C 23,3 C 16,7 C 55 % 1019,8 hPa 0,0 l/m 2 min 0 min 656 W/m 19,3 km/h (3 Bft) 97,87 %
30.03.2019 11:12 18,1 C 22,2 C 16,7 C 54 % 1019,8 hPa 0,0 l/m 2 min 0 min 661 W/m 19,3 km/h (3 Bft) 97,87 %
30.03.2019 11:14 18,1 C 22,8 C 17,2 C 55 % 1019,8 hPa 0,0 l/m 2 min 0 min 662 W/m 12,9 km/h (3 Bft) 95,74 %
30.03.2019 11:16 18,2 C 23,9 C 17,8 C 56 % 1019,8 hPa 0,0 l/m 2 min 0 min 663 W/m 12,9 km/h (3 Bft) 95,74 %
30.03.2019 11:18 18,2 C 25,0 C 17,8 C 55 % 1019,8 hPa 0,0 l/m 2 min 0 min 665 W/m 12,9 km/h (3 Bft) 95,65 %
30.03.2019 11:20 18,3 C 24,4 C 17,8 C 54 % 1019,7 hPa 0,0 l/m 2 min 0 min 674 W/m 16,1 km/h (3 Bft) 95,74 %
30.03.2019 11:22 18,4 C 24,4 C 17,8 C 54 % 1019,7 hPa 0,0 l/m 2 min 0 min 673 W/m 19,3 km/h (3 Bft) 91,49 %
30.03.2019 11:24 18,5 C 24,4 C 17,8 C 54 % 1019,6 hPa 0,0 l/m 2 min 0 min 679 W/m 22,5 km/h (4 Bft) 95,74 %
30.03.2019 11:26 18,6 C 25,0 C 18,3 C 53 % 1019,6 hPa 0,0 l/m 2 min 0 min 683 W/m 16,1 km/h (3 Bft) 95,74 %
30.03.2019 11:28 18,7 C 24,4 C 17,8 C 52 % 1019,6 hPa 0,0 l/m 2 min 0 min 683 W/m 19,3 km/h (3 Bft) 93,62 %
30.03.2019 11:30 18,7 C 23,3 C 17,8 C 52 % 1019,7 hPa 0,0 l/m 2 min 0 min 689 W/m 19,3 km/h (3 Bft) 95,74 %
30.03.2019 11:32 18,8 C 23,9 C 17,8 C 52 % 1019,6 hPa 0,0 l/m 2 min 0 min 689 W/m 12,9 km/h (3 Bft) 93,48 %
30.03.2019 11:34 18,9 C 23,3 C 17,8 C 51 % 1019,6 hPa 0,0 l/m 2 min 0 min 691 W/m 16,1 km/h (3 Bft) 97,87 %
30.03.2019 11:36 18,9 C 23,9 C 17,8 C 51 % 1019,6 hPa 0,0 l/m 2 min 0 min 701 W/m 12,9 km/h (3 Bft) 97,87 %
30.03.2019 11:38 19,0 C 24,4 C 18,3 C 52 % 1019,6 hPa 0,0 l/m 2 min 0 min 703 W/m 6,4 km/h (2 Bft) 97,87 %
30.03.2019 11:40 19,1 C 25,0 C 18,3 C 52 % 1019,5 hPa 0,0 l/m 2 min 0 min 703 W/m 16,1 km/h (3 Bft) 97,87 %
30.03.2019 11:42 19,1 C 25,6 C 18,3 C 51 % 1019,5 hPa 0,0 l/m 2 min 0 min 700 W/m 9,7 km/h (2 Bft) 97,83 %
30.03.2019 11:44 19,2 C 25,0 C 18,3 C 50 % 1019,5 hPa 0,0 l/m 2 min 0 min 706 W/m 12,9 km/h (3 Bft) 97,87 %
30.03.2019 11:46 19,3 C 25,0 C 18,3 C 50 % 1019,5 hPa 0,0 l/m 2 min 0 min 714 W/m 12,9 km/h (3 Bft) 97,87 %
30.03.2019 11:48 19,3 C 25,0 C 18,3 C 50 % 1019,5 hPa 0,0 l/m 2 min 0 min 720 W/m 12,9 km/h (3 Bft) 97,87 %
30.03.2019 11:50 19,4 C 25,0 C 18,3 C 50 % 1019,5 hPa 0,0 l/m 2 min 0 min 728 W/m 12,9 km/h (3 Bft) 97,87 %
30.03.2019 11:52 19,4 C 25,6 C 18,3 C 49 % 1019,5 hPa 0,0 l/m 2 min 0 min 729 W/m 6,4 km/h (2 Bft) 100,00 %
30.03.2019 11:54 19,6 C 25,6 C 18,3 C 50 % 1019,4 hPa 0,0 l/m 2 min 0 min 736 W/m 9,7 km/h (2 Bft) 97,83 %
30.03.2019 11:56 19,6 C 25,0 C 18,3 C 49 % 1019,4 hPa 0,0 l/m 2 min 0 min 734 W/m 19,3 km/h (3 Bft) 97,87 %
30.03.2019 11:58 19,6 C 25,0 C 18,9 C 49 % 1019,6 hPa 0,0 l/m 2 min 0 min 749 W/m 9,7 km/h (2 Bft) 97,87 %
30.03.2019 12:00 19,7 C 26,1 C 18,9 C 49 % 1019,5 hPa 0,0 l/m 2 min 0 min 765 W/m 9,7 km/h (2 Bft) 97,87 %
30.03.2019 12:02 19,7 C 26,1 C 18,9 C 48 % 1019,5 hPa 0,0 l/m 2 min 0 min 779 W/m 6,4 km/h (2 Bft) 94,29 %
30.03.2019 12:04 19,8 C 26,1 C 19,4 C 49 % 1019,5 hPa 0,0 l/m 2 min 0 min 791 W/m 16,1 km/h (3 Bft) 95,74 %
30.03.2019 12:08 19,9 C 24,4 C 18,9 C 47 % 1019,5 hPa 0,0 l/m 4 min 0 min 781 W/m 25,7 km/h (4 Bft) 95,74 %
30.03.2019 12:10 20,0 C 23,9 C 18,9 C 48 % 1019,5 hPa 0,0 l/m 2 min 0 min 784 W/m 12,9 km/h (3 Bft) 95,65 %
30.03.2019 12:12 20,0 C 23,9 C 18,9 C 46 % 1019,5 hPa 0,0 l/m 2 min 0 min 785 W/m 16,1 km/h (3 Bft) 93,62 %
30.03.2019 12:14 19,9 C 23,9 C 18,9 C 46 % 1019,5 hPa 0,0 l/m 2 min 0 min 823 W/m 16,1 km/h (3 Bft) 95,74 %
30.03.2019 12:16 19,9 C 23,9 C 18,9 C 47 % 1019,5 hPa 0,0 l/m 2 min 0 min 821 W/m 16,1 km/h (3 Bft) 95,74 %
30.03.2019 12:18 19,9 C 24,4 C 19,4 C 47 % 1019,5 hPa 0,0 l/m 2 min 0 min 819 W/m 12,9 km/h (3 Bft) 95,74 %
30.03.2019 12:20 19,9 C 23,3 C 18,9 C 46 % 1019,4 hPa 0,0 l/m 2 min 0 min 819 W/m 16,1 km/h (3 Bft) 91,49 %
30.03.2019 12:22 19,9 C 25,0 C 19,4 C 47 % 1019,4 hPa 0,0 l/m 2 min 0 min 821 W/m 16,1 km/h (3 Bft) 93,48 %
30.03.2019 12:24 19,9 C 25,6 C 20,0 C 48 % 1019,3 hPa 0,0 l/m 2 min 0 min 829 W/m 16,1 km/h (3 Bft) 95,74 %
30.03.2019 12:26 20,0 C 25,0 C 19,4 C 47 % 1019,3 hPa 0,0 l/m 2 min 0 min 795 W/m 19,3 km/h (3 Bft) 95,74 %
30.03.2019 12:28 20,0 C 24,4 C 20,0 C 47 % 1019,3 hPa 0,0 l/m 2 min 0 min 746 W/m 16,1 km/h (3 Bft) 95,74 %
30.03.2019 12:30 20,0 C 24,4 C 20,0 C 47 % 1019,4 hPa 0,0 l/m 2 min 0 min 737 W/m 16,1 km/h (3 Bft) 95,74 %
30.03.2019 12:32 20,0 C 24,4 C 21,1 C 48 % 1019,3 hPa 0,0 l/m 2 min 0 min 785 W/m 22,5 km/h (4 Bft) 97,83 %
30.03.2019 12:34 20,1 C 25,0 C 23,3 C 47 % 1019,2 hPa 0,0 l/m 2 min 0 min 772 W/m 16,1 km/h (3 Bft) 95,74 %
30.03.2019 12:36 19,9 C 21,1 C 20,0 C 44 % 1019,3 hPa 0,0 l/m 2 min 0 min 539 W/m 25,7 km/h (4 Bft) 93,22 %
30.03.2019 12:38 19,8 C 21,7 C 21,1 C 45 % 1019,3 hPa 0,0 l/m 0 min 0 min 194 W/m 19,3 km/h (3 Bft) 95,74 %
30.03.2019 12:40 19,8 C 23,3 C 22,8 C 46 % 1019,2 hPa 0,0 l/m 2 min 0 min 760 W/m 16,1 km/h (3 Bft) 97,14 %
30.03.2019 12:42 19,8 C 23,9 C 23,9 C 47 % 1019,2 hPa 0,0 l/m 2 min 0 min 640 W/m 12,9 km/h (3 Bft) 93,62 %
30.03.2019 12:44 19,7 C 23,9 C 23,9 C 45 % 1019,3 hPa 0,0 l/m 2 min 0 min 747 W/m 12,9 km/h (3 Bft) 95,65 %
30.03.2019 12:46 19,8 C 25,0 C 24,4 C 46 % 1019,1 hPa 0,0 l/m 2 min 0 min 768 W/m 19,3 km/h (3 Bft) 97,87 %
30.03.2019 12:48 19,8 C 24,4 C 25,0 C 45 % 1019,1 hPa 0,0 l/m 2 min 0 min 769 W/m 22,5 km/h (4 Bft) 97,87 %
30.03.2019 12:50 19,8 C 23,3 C 23,9 C 45 % 1019,3 hPa 0,0 l/m 2 min 0 min 753 W/m 19,3 km/h (3 Bft) 97,87 %
30.03.2019 12:52 19,8 C 23,9 C 24,4 C 45 % 1019,1 hPa 0,0 l/m 2 min 0 min 747 W/m 16,1 km/h (3 Bft) 100,00 %
30.03.2019 12:54 19,8 C 23,9 C 24,4 C 45 % 1019,2 hPa 0,0 l/m 2 min 0 min 746 W/m 16,1 km/h (3 Bft) 95,74 %
30.03.2019 12:56 19,8 C 24,4 C 25,0 C 46 % 1019,1 hPa 0,0 l/m 2 min 0 min 754 W/m 16,1 km/h (3 Bft) 100,00 %
30.03.2019 12:58 19,8 C 25,0 C 25,0 C 46 % 1019,0 hPa 0,0 l/m 2 min 0 min 751 W/m 22,5 km/h (4 Bft) 100,00 %
30.03.2019 13:00 19,8 C 24,4 C 25,0 C 46 % 1019,1 hPa 0,0 l/m 2 min 0 min 747 W/m 16,1 km/h (3 Bft) 100,00 %
30.03.2019 13:02 19,8 C 25,0 C 25,6 C 45 % 1018,9 hPa 0,0 l/m 2 min 0 min 729 W/m 12,9 km/h (3 Bft) 100,00 %
30.03.2019 13:04 19,9 C 25,0 C 25,6 C 46 % 1019,0 hPa 0,0 l/m 2 min 0 min 738 W/m 6,4 km/h (2 Bft) 100,00 %
30.03.2019 13:06 19,9 C 25,6 C 25,6 C 47 % 1018,9 hPa 0,0 l/m 2 min 0 min 737 W/m 9,7 km/h (2 Bft) 100,00 %
30.03.2019 13:08 20,0 C 25,6 C 25,6 C 47 % 1018,9 hPa 0,0 l/m 2 min 0 min 721 W/m 22,5 km/h (4 Bft) 97,14 %
30.03.2019 13:10 20,1 C 23,3 C 23,9 C 46 % 1019,0 hPa 0,0 l/m 2 min 0 min 734 W/m 32,2 km/h (5 Bft) 100,00 %
30.03.2019 13:12 20,0 C 23,9 C 24,4 C 46 % 1018,9 hPa 0,0 l/m 2 min 0 min 740 W/m 22,5 km/h (4 Bft) 100,00 %
30.03.2019 13:14 20,0 C 23,3 C 24,4 C 45 % 1018,9 hPa 0,0 l/m 2 min 0 min 722 W/m 22,5 km/h (4 Bft) 100,00 %
30.03.2019 13:16 20,0 C 23,3 C 25,0 C 45 % 1018,9 hPa 0,0 l/m 2 min 0 min 733 W/m 19,3 km/h (3 Bft) 100,00 %
30.03.2019 13:18 20,0 C 24,4 C 25,6 C 46 % 1018,9 hPa 0,0 l/m 2 min 0 min 727 W/m 16,1 km/h (3 Bft) 100,00 %
30.03.2019 13:20 20,1 C 25,0 C 25,6 C 46 % 1018,8 hPa 0,0 l/m 2 min 0 min 730 W/m 12,9 km/h (3 Bft) 97,83 %
30.03.2019 13:22 20,1 C 23,9 C 23,3 C 45 % 1018,9 hPa 0,0 l/m 2 min 0 min 732 W/m 16,1 km/h (3 Bft) 100,00 %
30.03.2019 13:24 20,1 C 25,6 C 22,8 C 47 % 1018,8 hPa 0,0 l/m 2 min 0 min 723 W/m 9,7 km/h (2 Bft) 100,00 %
30.03.2019 13:26 20,2 C 26,7 C 23,3 C 47 % 1018,8 hPa 0,0 l/m 2 min 0 min 732 W/m 9,7 km/h (2 Bft) 100,00 %
30.03.2019 13:28 20,2 C 26,1 C 23,9 C 46 % 1018,8 hPa 0,0 l/m 2 min 0 min 729 W/m 19,3 km/h (3 Bft) 100,00 %
30.03.2019 13:30 20,3 C 25,6 C 23,9 C 45 % 1018,8 hPa 0,0 l/m 2 min 0 min 716 W/m 12,9 km/h (3 Bft) 100,00 %
30.03.2019 13:32 20,3 C 25,6 C 25,0 C 45 % 1018,9 hPa 0,0 l/m 2 min 0 min 718 W/m 12,9 km/h (3 Bft) 100,00 %
30.03.2019 13:34 20,4 C 25,0 C 25,0 C 45 % 1018,8 hPa 0,0 l/m 2 min 0 min 712 W/m 9,7 km/h (2 Bft) 100,00 %
30.03.2019 13:36 20,4 C 25,6 C 25,0 C 46 % 1018,8 hPa 0,0 l/m 2 min 0 min 713 W/m 9,7 km/h (2 Bft) 100,00 %
30.03.2019 13:38 20,4 C 25,6 C 25,6 C 45 % 1018,7 hPa 0,0 l/m 2 min 0 min 711 W/m 9,7 km/h (2 Bft) 100,00 %
30.03.2019 13:40 20,5 C 25,6 C 25,6 C 46 % 1018,8 hPa 0,0 l/m 2 min 0 min 726 W/m 19,3 km/h (3 Bft) 100,00 %
30.03.2019 13:42 20,5 C 25,0 C 25,0 C 46 % 1018,7 hPa 0,0 l/m 2 min 0 min 727 W/m 16,1 km/h (3 Bft) 97,83 %
30.03.2019 13:44 20,5 C 24,4 C 25,0 C 45 % 1018,7 hPa 0,0 l/m 2 min 0 min 715 W/m 19,3 km/h (3 Bft) 97,87 %
30.03.2019 13:46 20,5 C 23,3 C 23,9 C 46 % 1018,6 hPa 0,0 l/m 2 min 0 min 722 W/m 22,5 km/h (4 Bft) 97,87 %
30.03.2019 13:48 20,4 C 23,3 C 21,7 C 45 % 1018,6 hPa 0,0 l/m 2 min 0 min 462 W/m 19,3 km/h (3 Bft) 97,87 %
30.03.2019 13:50 20,4 C 21,7 C 20,6 C 45 % 1018,6 hPa 0,0 l/m 2 min 0 min 666 W/m 16,1 km/h (3 Bft) 97,87 %
30.03.2019 13:52 20,3 C 20,6 C 19,4 C 45 % 1018,6 hPa 0,0 l/m 0 min 0 min 220 W/m 22,5 km/h (4 Bft) 97,87 %
30.03.2019 13:54 20,2 C 21,7 C 20,0 C 46 % 1018,6 hPa 0,0 l/m 0 min 0 min 298 W/m 12,9 km/h (3 Bft) 97,87 %
30.03.2019 13:56 20,2 C 23,3 C 20,0 C 47 % 1018,7 hPa 0,0 l/m 2 min 0 min 604 W/m 19,3 km/h (3 Bft) 97,83 %
30.03.2019 13:58 20,2 C 22,8 C 20,0 C 46 % 1018,6 hPa 0,0 l/m 2 min 0 min 752 W/m 9,7 km/h (2 Bft) 97,87 %
30.03.2019 14:00 20,2 C 23,9 C 20,0 C 47 % 1018,6 hPa 0,0 l/m 2 min 0 min 749 W/m 16,1 km/h (3 Bft) 97,87 %
30.03.2019 14:02 20,2 C 25,6 C 20,6 C 48 % 1018,6 hPa 0,0 l/m 2 min 0 min 745 W/m 22,5 km/h (4 Bft) 97,87 %
30.03.2019 14:04 20,3 C 27,2 C 20,6 C 48 % 1018,6 hPa 0,0 l/m 2 min 0 min 772 W/m 16,1 km/h (3 Bft) 97,87 %
30.03.2019 14:06 20,3 C 26,7 C 20,6 C 47 % 1018,6 hPa 0,0 l/m 2 min 0 min 784 W/m 9,7 km/h (2 Bft) 96,55 %
30.03.2019 14:08 20,4 C 27,2 C 21,1 C 47 % 1018,6 hPa 0,0 l/m 2 min 0 min 792 W/m 12,9 km/h (3 Bft) 97,14 %
30.03.2019 14:10 20,5 C 27,2 C 21,1 C 47 % 1018,6 hPa 0,0 l/m 2 min 0 min 787 W/m 9,7 km/h (2 Bft) 97,87 %
30.03.2019 14:12 20,6 C 25,6 C 21,1 C 47 % 1018,6 hPa 0,0 l/m 2 min 0 min 698 W/m 9,7 km/h (2 Bft) 97,87 %
30.03.2019 14:14 20,7 C 25,6 C 21,1 C 47 % 1018,5 hPa 0,0 l/m 2 min 0 min 430 W/m 9,7 km/h (2 Bft) 97,87 %
30.03.2019 14:16 20,7 C 25,0 C 21,1 C 46 % 1018,5 hPa 0,0 l/m 2 min 0 min 797 W/m 16,1 km/h (3 Bft) 97,87 %
30.03.2019 14:18 20,8 C 26,7 C 21,1 C 46 % 1018,4 hPa 0,0 l/m 2 min 0 min 797 W/m 12,9 km/h (3 Bft) 97,83 %
30.03.2019 14:20 20,9 C 26,1 C 21,1 C 46 % 1018,4 hPa 0,0 l/m 2 min 0 min 788 W/m 9,7 km/h (2 Bft) 95,74 %
30.03.2019 14:22 20,9 C 24,4 C 20,6 C 45 % 1018,5 hPa 0,0 l/m 2 min 0 min 749 W/m 25,7 km/h (4 Bft) 97,87 %
30.03.2019 14:24 20,8 C 21,7 C 19,4 C 45 % 1018,5 hPa 0,0 l/m 2 min 0 min 508 W/m 19,3 km/h (3 Bft) 97,87 %
30.03.2019 14:26 20,7 C 22,8 C 20,0 C 45 % 1018,5 hPa 0,0 l/m 0 min 0 min 227 W/m 9,7 km/h (2 Bft) 97,87 %
30.03.2019 14:28 20,7 C 23,9 C 20,0 C 47 % 1018,5 hPa 0,0 l/m 2 min 0 min 344 W/m 12,9 km/h (3 Bft) 97,87 %
30.03.2019 14:30 20,7 C 25,0 C 20,6 C 47 % 1018,5 hPa 0,0 l/m 2 min 0 min 540 W/m 9,7 km/h (2 Bft) 97,83 %
30.03.2019 14:32 20,7 C 23,9 C 20,0 C 46 % 1018,4 hPa 0,0 l/m 2 min 0 min 462 W/m 9,7 km/h (2 Bft) 97,87 %
30.03.2019 14:34 20,7 C 22,2 C 20,0 C 46 % 1018,4 hPa 0,0 l/m 0 min 0 min 245 W/m 6,4 km/h (2 Bft) 97,87 %
30.03.2019 14:36 20,7 C 22,8 C 20,0 C 47 % 1018,4 hPa 0,0 l/m 0 min 0 min 253 W/m 9,7 km/h (2 Bft) 94,92 %
30.03.2019 14:38 20,6 C 23,9 C 20,0 C 46 % 1018,4 hPa 0,0 l/m 2 min 0 min 587 W/m 9,7 km/h (2 Bft) 97,14 %
30.03.2019 14:40 20,6 C 23,9 C 20,0 C 46 % 1018,4 hPa 0,0 l/m 2 min 0 min 700 W/m 16,1 km/h (3 Bft) 97,87 %
30.03.2019 14:42 20,6 C 23,9 C 20,0 C 46 % 1018,4 hPa 0,0 l/m 2 min 0 min 667 W/m 22,5 km/h (4 Bft) 97,83 %
30.03.2019 14:44 20,6 C 25,0 C 20,0 C 47 % 1018,4 hPa 0,0 l/m 2 min 0 min 659 W/m 12,9 km/h (3 Bft) 97,87 %
30.03.2019 14:46 20,6 C 24,4 C 20,0 C 46 % 1018,3 hPa 0,0 l/m 2 min 0 min 647 W/m 9,7 km/h (2 Bft) 95,74 %
30.03.2019 14:48 20,6 C 25,0 C 20,0 C 46 % 1018,4 hPa 0,0 l/m 2 min 0 min 632 W/m 29,0 km/h (5 Bft) 97,87 %
30.03.2019 14:50 20,6 C 23,9 C 20,0 C 46 % 1018,4 hPa 0,0 l/m 2 min 0 min 630 W/m 16,1 km/h (3 Bft) 97,87 %
30.03.2019 14:52 20,6 C 23,9 C 20,0 C 46 % 1018,3 hPa 0,0 l/m 2 min 0 min 630 W/m 9,7 km/h (2 Bft) 97,87 %
30.03.2019 14:54 20,6 C 25,0 C 20,0 C 46 % 1018,3 hPa 0,0 l/m 2 min 0 min 638 W/m 12,9 km/h (3 Bft) 97,83 %
30.03.2019 14:56 20,6 C 25,6 C 20,0 C 47 % 1018,3 hPa 0,0 l/m 2 min 0 min 638 W/m 9,7 km/h (2 Bft) 95,74 %
30.03.2019 14:58 20,7 C 25,6 C 20,0 C 47 % 1018,3 hPa 0,0 l/m 2 min 0 min 649 W/m 12,9 km/h (3 Bft) 97,87 %
30.03.2019 15:00 20,7 C 25,0 C 20,0 C 46 % 1018,3 hPa 0,0 l/m 2 min 0 min 660 W/m 9,7 km/h (2 Bft) 97,87 %
30.03.2019 15:02 20,7 C 25,0 C 20,6 C 46 % 1018,2 hPa 0,0 l/m 2 min 0 min 670 W/m 9,7 km/h (2 Bft) 95,74 %
30.03.2019 15:04 20,7 C 23,9 C 20,0 C 45 % 1018,3 hPa 0,0 l/m 2 min 0 min 660 W/m 19,3 km/h (3 Bft) 97,87 %
30.03.2019 15:06 20,7 C 23,3 C 20,0 C 46 % 1018,3 hPa 0,0 l/m 2 min 0 min 635 W/m 22,5 km/h (4 Bft) 98,28 %
30.03.2019 15:08 20,7 C 23,9 C 20,0 C 47 % 1018,3 hPa 0,0 l/m 2 min 0 min 619 W/m 6,4 km/h (2 Bft) 94,29 %
30.03.2019 15:10 20,8 C 25,0 C 20,6 C 47 % 1018,3 hPa 0,0 l/m 2 min 0 min 600 W/m 12,9 km/h (3 Bft) 95,74 %
30.03.2019 15:12 20,8 C 23,9 C 20,0 C 47 % 1018,3 hPa 0,0 l/m 2 min 0 min 598 W/m 16,1 km/h (3 Bft) 97,87 %
30.03.2019 15:14 20,8 C 22,8 C 19,4 C 47 % 1018,3 hPa 0,0 l/m 2 min 0 min 289 W/m 9,7 km/h (2 Bft) 97,87 %
30.03.2019 15:16 20,7 C 23,9 C 19,4 C 46 % 1018,3 hPa 0,0 l/m 2 min 0 min 363 W/m 12,9 km/h (3 Bft) 95,74 %
30.03.2019 15:18 20,7 C 24,4 C 20,0 C 46 % 1018,2 hPa 0,0 l/m 2 min 0 min 598 W/m 16,1 km/h (3 Bft) 95,65 %
30.03.2019 15:20 20,7 C 25,0 C 20,0 C 46 % 1018,3 hPa 0,0 l/m 2 min 0 min 600 W/m 16,1 km/h (3 Bft) 97,87 %
30.03.2019 15:22 20,7 C 23,9 C 20,0 C 45 % 1018,2 hPa 0,0 l/m 2 min 0 min 404 W/m 9,7 km/h (2 Bft) 95,74 %
30.03.2019 15:24 20,7 C 22,8 C 19,4 C 45 % 1018,3 hPa 0,0 l/m 0 min 0 min 182 W/m 9,7 km/h (2 Bft) 100,00 %
30.03.2019 15:26 20,6 C 24,4 C 19,4 C 46 % 1018,2 hPa 0,0 l/m 2 min 0 min 463 W/m 16,1 km/h (3 Bft) 97,87 %
30.03.2019 15:28 20,6 C 24,4 C 19,4 C 45 % 1018,2 hPa 0,0 l/m 2 min 0 min 571 W/m 16,1 km/h (3 Bft) 95,74 %
30.03.2019 15:30 20,6 C 24,4 C 19,4 C 46 % 1018,2 hPa 0,0 l/m 2 min 0 min 561 W/m 16,1 km/h (3 Bft) 100,00 %
30.03.2019 15:32 20,6 C 23,3 C 19,4 C 46 % 1018,2 hPa 0,0 l/m 2 min 0 min 422 W/m 12,9 km/h (3 Bft) 100,00 %
30.03.2019 15:34 20,6 C 23,3 C 19,4 C 46 % 1018,2 hPa 0,0 l/m 2 min 0 min 402 W/m 19,3 km/h (3 Bft) 95,74 %
30.03.2019 15:36 20,5 C 23,3 C 19,4 C 46 % 1018,2 hPa 0,0 l/m 2 min 0 min 529 W/m 12,9 km/h (3 Bft) 96,55 %
30.03.2019 15:38 20,6 C 24,4 C 20,0 C 47 % 1018,2 hPa 0,0 l/m 2 min 0 min 530 W/m 12,9 km/h (3 Bft) 97,22 %
30.03.2019 15:40 20,6 C 23,3 C 19,4 C 46 % 1018,1 hPa 0,0 l/m 2 min 0 min 531 W/m 12,9 km/h (3 Bft) 97,83 %
30.03.2019 15:42 20,5 C 22,2 C 19,4 C 45 % 1018,2 hPa 0,0 l/m 2 min 0 min 460 W/m 9,7 km/h (2 Bft) 97,87 %
30.03.2019 15:44 20,5 C 22,8 C 18,9 C 45 % 1018,1 hPa 0,0 l/m 2 min 0 min 335 W/m 16,1 km/h (3 Bft) 97,87 %
30.03.2019 15:46 20,4 C 22,8 C 19,4 C 45 % 1018,1 hPa 0,0 l/m 2 min 0 min 494 W/m 12,9 km/h (3 Bft) 97,87 %
30.03.2019 15:48 20,4 C 23,3 C 19,4 C 45 % 1018,1 hPa 0,0 l/m 2 min 0 min 513 W/m 9,7 km/h (2 Bft) 93,62 %
30.03.2019 15:50 20,4 C 22,2 C 19,4 C 45 % 1018,0 hPa 0,0 l/m 2 min 0 min 512 W/m 9,7 km/h (2 Bft) 95,74 %
30.03.2019 15:52 20,4 C 22,8 C 19,4 C 46 % 1018,2 hPa 0,0 l/m 2 min 0 min 484 W/m 12,9 km/h (3 Bft) 97,87 %
30.03.2019 15:54 20,4 C 23,3 C 20,0 C 45 % 1018,0 hPa 0,0 l/m 2 min 0 min 484 W/m 16,1 km/h (3 Bft) 97,83 %
30.03.2019 15:56 20,4 C 23,9 C 20,6 C 46 % 1017,9 hPa 0,0 l/m 2 min 0 min 477 W/m 9,7 km/h (2 Bft) 97,87 %
30.03.2019 15:58 20,4 C 23,9 C 20,6 C 46 % 1018,0 hPa 0,0 l/m 2 min 0 min 482 W/m 9,7 km/h (2 Bft) 97,87 %
30.03.2019 16:00 20,3 C 22,8 C 20,6 C 44 % 1017,9 hPa 0,0 l/m 2 min 0 min 483 W/m 16,1 km/h (3 Bft) 95,74 %
30.03.2019 16:02 20,4 C 23,9 C 21,7 C 47 % 1017,9 hPa 0,0 l/m 2 min 0 min 472 W/m 9,7 km/h (2 Bft) 95,74 %
30.03.2019 16:04 20,4 C 24,4 C 22,8 C 47 % 1017,8 hPa 0,0 l/m 2 min 0 min 460 W/m 9,7 km/h (2 Bft) 97,83 %
30.03.2019 16:06 20,5 C 23,9 C 22,2 C 46 % 1017,9 hPa 0,0 l/m 2 min 0 min 449 W/m 19,3 km/h (3 Bft) 98,31 %
30.03.2019 16:08 20,5 C 22,8 C 21,1 C 46 % 1017,9 hPa 0,0 l/m 2 min 0 min 436 W/m 16,1 km/h (3 Bft) 97,14 %
30.03.2019 16:10 20,5 C 22,8 C 20,0 C 46 % 1017,9 hPa 0,0 l/m 2 min 0 min 394 W/m 16,1 km/h (3 Bft) 95,74 %
30.03.2019 16:12 20,4 C 22,2 C 19,4 C 45 % 1018,0 hPa 0,0 l/m 2 min 0 min 419 W/m 9,7 km/h (2 Bft) 97,87 %
30.03.2019 16:14 20,4 C 22,2 C 19,4 C 45 % 1017,9 hPa 0,0 l/m 2 min 0 min 421 W/m 12,9 km/h (3 Bft) 97,87 %
30.03.2019 16:16 20,4 C 22,2 C 18,9 C 46 % 1017,9 hPa 0,0 l/m 2 min 0 min 418 W/m 12,9 km/h (3 Bft) 98,11 %
30.03.2019 16:18 20,4 C 22,8 C 18,9 C 46 % 1017,9 hPa 0,0 l/m 2 min 0 min 409 W/m 12,9 km/h (3 Bft) 97,87 %
30.03.2019 16:20 20,4 C 21,7 C 18,9 C 45 % 1017,8 hPa 0,0 l/m 2 min 0 min 403 W/m 12,9 km/h (3 Bft) 97,87 %
30.03.2019 16:22 20,3 C 21,7 C 18,9 C 44 % 1017,8 hPa 0,0 l/m 2 min 0 min 393 W/m 12,9 km/h (3 Bft) 97,87 %
30.03.2019 16:24 20,3 C 21,7 C 18,9 C 45 % 1017,8 hPa 0,0 l/m 2 min 0 min 387 W/m 16,1 km/h (3 Bft) 97,87 %
30.03.2019 16:26 20,2 C 21,1 C 18,9 C 45 % 1017,8 hPa 0,0 l/m 2 min 0 min 384 W/m 12,9 km/h (3 Bft) 93,48 %
30.03.2019 16:28 20,2 C 21,1 C 18,9 C 45 % 1017,8 hPa 0,0 l/m 2 min 0 min 383 W/m 9,7 km/h (2 Bft) 95,74 %
30.03.2019 16:30 20,2 C 21,1 C 18,9 C 45 % 1017,8 hPa 0,0 l/m 2 min 0 min 380 W/m 9,7 km/h (2 Bft) 97,87 %
30.03.2019 16:32 20,2 C 21,1 C 18,9 C 45 % 1017,8 hPa 0,0 l/m 2 min 0 min 373 W/m 16,1 km/h (3 Bft) 97,87 %
30.03.2019 16:34 20,2 C 21,1 C 18,9 C 45 % 1017,7 hPa 0,0 l/m 2 min 0 min 365 W/m 12,9 km/h (3 Bft) 97,87 %
30.03.2019 16:36 20,2 C 21,1 C 18,9 C 45 % 1017,7 hPa 0,0 l/m 2 min 0 min 363 W/m 6,4 km/h (2 Bft) 97,87 %
30.03.2019 16:38 20,2 C 21,7 C 18,9 C 46 % 1017,7 hPa 0,0 l/m 2 min 0 min 357 W/m 9,7 km/h (2 Bft) 97,83 %
30.03.2019 16:40 20,2 C 22,2 C 18,9 C 46 % 1017,7 hPa 0,0 l/m 2 min 0 min 347 W/m 12,9 km/h (3 Bft) 97,87 %
30.03.2019 16:42 20,2 C 22,2 C 18,3 C 46 % 1017,7 hPa 0,0 l/m 2 min 0 min 335 W/m 16,1 km/h (3 Bft) 97,87 %
30.03.2019 16:44 20,1 C 21,1 C 18,3 C 45 % 1017,7 hPa 0,0 l/m 2 min 0 min 332 W/m 9,7 km/h (2 Bft) 97,87 %
30.03.2019 16:46 20,1 C 21,1 C 18,3 C 46 % 1017,7 hPa 0,0 l/m 2 min 0 min 325 W/m 19,3 km/h (3 Bft) 97,87 %
30.03.2019 16:48 20,1 C 21,1 C 18,3 C 47 % 1017,7 hPa 0,0 l/m 2 min 0 min 314 W/m 9,7 km/h (2 Bft) 97,87 %
30.03.2019 16:50 20,1 C 21,1 C 18,3 C 46 % 1017,7 hPa 0,0 l/m 2 min 0 min 304 W/m 9,7 km/h (2 Bft) 97,83 %
30.03.2019 16:52 20,1 C 21,1 C 17,8 C 46 % 1017,6 hPa 0,0 l/m 2 min 0 min 301 W/m 9,7 km/h (2 Bft) 97,87 %
30.03.2019 16:54 20,1 C 21,7 C 17,8 C 47 % 1017,6 hPa 0,0 l/m 2 min 0 min 298 W/m 12,9 km/h (3 Bft) 97,87 %
30.03.2019 16:56 20,1 C 21,1 C 17,8 C 47 % 1017,6 hPa 0,0 l/m 2 min 0 min 290 W/m 16,1 km/h (3 Bft) 95,74 %
30.03.2019 16:58 20,0 C 20,6 C 17,8 C 47 % 1017,6 hPa 0,0 l/m 2 min 0 min 285 W/m 9,7 km/h (2 Bft) 97,87 %
30.03.2019 17:00 19,9 C 20,0 C 17,8 C 46 % 1017,6 hPa 0,0 l/m 2 min 0 min 277 W/m 12,9 km/h (3 Bft) 97,87 %
30.03.2019 17:02 19,8 C 20,0 C 17,8 C 47 % 1017,7 hPa 0,0 l/m 2 min 0 min 270 W/m 9,7 km/h (2 Bft) 97,83 %
30.03.2019 17:04 19,8 C 18,9 C 17,8 C 47 % 1017,7 hPa 0,0 l/m 2 min 0 min 259 W/m 9,7 km/h (2 Bft) 97,87 %
30.03.2019 17:06 19,7 C 18,9 C 17,8 C 47 % 1017,7 hPa 0,0 l/m 2 min 0 min 217 W/m 9,7 km/h (2 Bft) 95,74 %
30.03.2019 17:08 19,7 C 18,9 C 17,2 C 47 % 1017,6 hPa 0,0 l/m 0 min 0 min 93 W/m 9,7 km/h (2 Bft) 95,74 %
30.03.2019 17:10 19,6 C 18,3 C 17,2 C 48 % 1017,6 hPa 0,0 l/m 0 min 0 min 83 W/m 6,4 km/h (2 Bft) 95,74 %
30.03.2019 17:12 19,6 C 18,3 C 17,2 C 48 % 1017,6 hPa 0,0 l/m 0 min 0 min 83 W/m 6,4 km/h (2 Bft) 93,62 %
30.03.2019 17:14 19,4 C 18,3 C 17,2 C 48 % 1017,7 hPa 0,0 l/m 0 min 0 min 85 W/m 9,7 km/h (2 Bft) 95,65 %
30.03.2019 17:16 19,4 C 18,3 C 17,2 C 48 % 1017,7 hPa 0,0 l/m 0 min 0 min 90 W/m 6,4 km/h (2 Bft) 95,74 %
30.03.2019 17:18 19,3 C 18,3 C 17,2 C 49 % 1017,6 hPa 0,0 l/m 0 min 0 min 91 W/m 9,7 km/h (2 Bft) 95,74 %
30.03.2019 17:20 19,3 C 18,3 C 17,2 C 49 % 1017,7 hPa 0,0 l/m 0 min 0 min 90 W/m 6,4 km/h (2 Bft) 95,74 %
30.03.2019 17:22 19,2 C 18,3 C 17,2 C 49 % 1017,6 hPa 0,0 l/m 0 min 0 min 88 W/m 6,4 km/h (2 Bft) 95,74 %
30.03.2019 17:24 19,2 C 18,3 C 17,2 C 49 % 1017,6 hPa 0,0 l/m 0 min 0 min 83 W/m 6,4 km/h (2 Bft) 97,83 %
30.03.2019 17:26 19,1 C 17,8 C 16,7 C 48 % 1017,6 hPa 0,0 l/m 0 min 0 min 80 W/m 16,1 km/h (3 Bft) 97,87 %
30.03.2019 17:28 19,1 C 17,8 C 16,7 C 48 % 1017,7 hPa 0,0 l/m 0 min 0 min 70 W/m 9,7 km/h (2 Bft) 97,87 %
30.03.2019 17:30 19,0 C 17,8 C 16,7 C 48 % 1017,6 hPa 0,0 l/m 0 min 0 min 64 W/m 12,9 km/h (3 Bft) 95,83 %
30.03.2019 17:32 18,9 C 17,8 C 16,7 C 48 % 1017,5 hPa 0,0 l/m 0 min 0 min 65 W/m 9,7 km/h (2 Bft) 93,62 %
30.03.2019 17:34 18,8 C 17,2 C 16,7 C 50 % 1017,6 hPa 0,0 l/m 0 min 0 min 63 W/m 12,9 km/h (3 Bft) 97,87 %
30.03.2019 17:36 18,7 C 17,2 C 16,7 C 50 % 1017,7 hPa 0,0 l/m 0 min 0 min 65 W/m 9,7 km/h (2 Bft) 95,65 %
30.03.2019 17:38 18,7 C 17,2 C 16,7 C 50 % 1017,6 hPa 0,0 l/m 0 min 0 min 65 W/m 12,9 km/h (3 Bft) 95,74 %
30.03.2019 17:40 18,6 C 17,2 C 16,1 C 51 % 1017,6 hPa 0,0 l/m 0 min 0 min 64 W/m 3,2 km/h (1 Bft) 95,74 %
30.03.2019 17:42 18,5 C 17,2 C 16,1 C 51 % 1017,6 hPa 0,0 l/m 0 min 0 min 63 W/m 6,4 km/h (2 Bft) 97,87 %
30.03.2019 17:44 18,4 C 17,2 C 16,1 C 50 % 1017,7 hPa 0,0 l/m 0 min 0 min 63 W/m 6,4 km/h (2 Bft) 97,87 %
30.03.2019 17:46 18,4 C 17,2 C 16,1 C 51 % 1017,6 hPa 0,0 l/m 0 min 0 min 63 W/m 6,4 km/h (2 Bft) 97,87 %
30.03.2019 17:48 18,4 C 17,2 C 16,1 C 51 % 1017,7 hPa 0,0 l/m 0 min 0 min 62 W/m 3,2 km/h (1 Bft) 97,83 %
30.03.2019 17:50 18,3 C 17,2 C 16,1 C 51 % 1017,6 hPa 0,0 l/m 0 min 0 min 62 W/m 3,2 km/h (1 Bft) 97,87 %
30.03.2019 17:52 18,3 C 17,2 C 16,1 C 52 % 1017,7 hPa 0,0 l/m 0 min 0 min 62 W/m 3,2 km/h (1 Bft) 100,00 %
30.03.2019 17:54 18,2 C 17,2 C 16,1 C 52 % 1017,7 hPa 0,0 l/m 0 min 0 min 61 W/m 3,2 km/h (1 Bft) 100,00 %
30.03.2019 17:56 18,2 C 17,2 C 16,1 C 51 % 1017,7 hPa 0,0 l/m 0 min 0 min 60 W/m 6,4 km/h (2 Bft) 100,00 %
30.03.2019 17:58 18,2 C 17,2 C 16,1 C 51 % 1017,7 hPa 0,0 l/m 0 min 0 min 60 W/m 6,4 km/h (2 Bft) 97,87 %
30.03.2019 18:00 18,1 C 17,2 C 16,1 C 52 % 1017,7 hPa 0,0 l/m 0 min 0 min 60 W/m 6,4 km/h (2 Bft) 100,00 %
30.03.2019 18:02 18,1 C 17,2 C 16,1 C 51 % 1017,7 hPa 0,0 l/m 0 min 0 min 59 W/m 6,4 km/h (2 Bft) 97,92 %
30.03.2019 18:04 18,1 C 17,2 C 16,1 C 52 % 1017,7 hPa 0,0 l/m 0 min 0 min 57 W/m 3,2 km/h (1 Bft) 100,00 %
30.03.2019 18:08 18,0 C 16,7 C 15,6 C 52 % 1017,7 hPa 0,0 l/m 0 min 0 min 52 W/m 9,7 km/h (2 Bft) 100,00 %
30.03.2019 18:10 17,9 C 16,7 C 15,6 C 52 % 1017,7 hPa 0,0 l/m 0 min 0 min 48 W/m 6,4 km/h (2 Bft) 100,00 %
30.03.2019 18:12 17,9 C 16,7 C 15,6 C 52 % 1017,7 hPa 0,0 l/m 0 min 0 min 47 W/m 3,2 km/h (1 Bft) 100,00 %
30.03.2019 18:14 17,8 C 16,7 C 15,6 C 52 % 1017,7 hPa 0,0 l/m 0 min 0 min 45 W/m 3,2 km/h (1 Bft) 100,00 %
30.03.2019 18:16 17,8 C 16,1 C 15,0 C 53 % 1017,7 hPa 0,0 l/m 0 min 0 min 43 W/m 0,0 km/h (0 Bft) 100,00 %
30.03.2019 18:18 17,8 C 16,1 C 15,0 C 53 % 1017,6 hPa 0,0 l/m 0 min 0 min 41 W/m 3,2 km/h (1 Bft) 100,00 %
30.03.2019 18:20 17,8 C 16,1 C 15,0 C 53 % 1017,6 hPa 0,0 l/m 0 min 0 min 39 W/m 3,2 km/h (1 Bft) 100,00 %
30.03.2019 18:22 17,7 C 16,1 C 14,4 C 54 % 1017,7 hPa 0,0 l/m 0 min 0 min 37 W/m 3,2 km/h (1 Bft) 97,83 %
30.03.2019 18:24 17,7 C 16,1 C 14,4 C 54 % 1017,6 hPa 0,0 l/m 0 min 0 min 34 W/m 0,0 km/h (0 Bft) 97,87 %
30.03.2019 18:26 17,6 C 15,6 C 14,4 C 54 % 1017,6 hPa 0,0 l/m 0 min 0 min 32 W/m 3,2 km/h (1 Bft) 97,87 %
30.03.2019 18:28 17,6 C 15,6 C 13,9 C 55 % 1017,7 hPa 0,0 l/m 0 min 0 min 28 W/m 3,2 km/h (1 Bft) 100,00 %
30.03.2019 18:30 17,5 C 15,6 C 13,9 C 54 % 1017,6 hPa 0,0 l/m 0 min 0 min 26 W/m 0,0 km/h (0 Bft) 100,00 %
30.03.2019 18:32 17,5 C 15,6 C 13,9 C 55 % 1017,6 hPa 0,0 l/m 0 min 0 min 25 W/m 3,2 km/h (1 Bft) 97,87 %
30.03.2019 18:34 17,4 C 15,6 C 13,9 C 55 % 1017,6 hPa 0,0 l/m 0 min 0 min 23 W/m 3,2 km/h (1 Bft) 95,65 %
30.03.2019 18:36 17,3 C 15,0 C 13,3 C 56 % 1017,6 hPa 0,0 l/m 0 min 0 min 21 W/m 3,2 km/h (1 Bft) 95,74 %
30.03.2019 18:38 17,3 C 15,0 C 13,3 C 56 % 1017,6 hPa 0,0 l/m 0 min 0 min 19 W/m 3,2 km/h (1 Bft) 97,87 %
30.03.2019 18:40 17,2 C 14,4 C 12,8 C 56 % 1017,7 hPa 0,0 l/m 0 min 0 min 18 W/m 0,0 km/h (0 Bft) 95,74 %
30.03.2019 18:42 17,2 C 14,4 C 12,8 C 56 % 1017,6 hPa 0,0 l/m 0 min 0 min 16 W/m 0,0 km/h (0 Bft) 95,74 %
30.03.2019 18:44 17,1 C 14,4 C 12,8 C 56 % 1017,6 hPa 0,0 l/m 0 min 0 min 15 W/m 0,0 km/h (0 Bft) 97,87 %
30.03.2019 18:46 17,0 C 14,4 C 12,8 C 57 % 1017,6 hPa 0,0 l/m 0 min 0 min 13 W/m 0,0 km/h (0 Bft) 97,83 %
30.03.2019 18:48 16,9 C 14,4 C 12,2 C 57 % 1017,6 hPa 0,0 l/m 0 min 0 min 12 W/m 0,0 km/h (0 Bft) 97,87 %
30.03.2019 18:50 16,9 C 14,4 C 12,2 C 58 % 1017,6 hPa 0,0 l/m 0 min 0 min 11 W/m 0,0 km/h (0 Bft) 97,87 %
30.03.2019 18:52 16,8 C 14,4 C 12,2 C 58 % 1017,6 hPa 0,0 l/m 0 min 0 min 10 W/m 0,0 km/h (0 Bft) 97,87 %
30.03.2019 18:54 16,7 C 14,4 C 12,2 C 58 % 1017,7 hPa 0,0 l/m 0 min 0 min 9 W/m 0,0 km/h (0 Bft) 95,74 %
30.03.2019 18:56 16,6 C 13,9 C 12,2 C 57 % 1017,7 hPa 0,0 l/m 0 min 0 min 7 W/m 0,0 km/h (0 Bft) 97,87 %
30.03.2019 18:58 16,6 C 13,9 C 11,7 C 58 % 1017,8 hPa 0,0 l/m 0 min 0 min 6 W/m 0,0 km/h (0 Bft) 97,83 %
30.03.2019 19:00 16,4 C 13,9 C 11,7 C 58 % 1017,8 hPa 0,0 l/m 0 min 0 min 5 W/m 0,0 km/h (0 Bft) 97,87 %
30.03.2019 19:02 16,3 C 13,9 C 11,7 C 58 % 1017,8 hPa 0,0 l/m 0 min 0 min 5 W/m 0,0 km/h (0 Bft) 100,00 %
30.03.2019 19:04 16,3 C 13,3 C 11,7 C 59 % 1017,8 hPa 0,0 l/m 0 min 0 min 1 W/m 0,0 km/h (0 Bft) 97,87 %
30.03.2019 19:06 16,2 C 13,3 C 11,7 C 59 % 1017,8 hPa 0,0 l/m 0 min 0 min 0 W/m 0,0 km/h (0 Bft) 97,87 %
30.03.2019 19:08 16,1 C 13,3 C 11,1 C 59 % 1017,8 hPa 0,0 l/m 0 min 0 min 0 W/m 0,0 km/h (0 Bft) 97,87 %
30.03.2019 19:10 16,0 C 13,3 C 11,1 C 59 % 1017,8 hPa 0,0 l/m 0 min 0 min 0 W/m 0,0 km/h (0 Bft) 100,00 %
30.03.2019 19:12 15,9 C 12,8 C 11,1 C 59 % 1017,8 hPa 0,0 l/m 0 min 0 min 0 W/m 0,0 km/h (0 Bft) 100,00 %
30.03.2019 19:14 15,8 C 12,8 C 11,1 C 60 % 1017,8 hPa 0,0 l/m 0 min 0 min 0 W/m 0,0 km/h (0 Bft) 100,00 %
30.03.2019 19:16 15,7 C 12,8 C 11,1 C 60 % 1017,8 hPa 0,0 l/m 0 min 0 min 0 W/m 0,0 km/h (0 Bft) 97,87 %
30.03.2019 19:18 15,6 C 12,8 C 11,1 C 60 % 1017,8 hPa 0,0 l/m 0 min 0 min 0 W/m 0,0 km/h (0 Bft) 100,00 %
30.03.2019 19:20 15,6 C 12,8 C 11,1 C 61 % 1017,8 hPa 0,0 l/m 0 min 0 min 0 W/m 0,0 km/h (0 Bft) 100,00 %
30.03.2019 19:22 15,4 C 12,2 C 11,1 C 61 % 1017,8 hPa 0,0 l/m 0 min 0 min 0 W/m 0,0 km/h (0 Bft) 100,00 %
30.03.2019 19:24 15,4 C 12,2 C 11,1 C 61 % 1017,8 hPa 0,0 l/m 0 min 0 min 0 W/m 0,0 km/h (0 Bft) 100,00 %
30.03.2019 19:26 15,3 C 12,8 C 11,1 C 62 % 1017,8 hPa 0,0 l/m 0 min 0 min 0 W/m 0,0 km/h (0 Bft) 91,49 %
30.03.2019 19:28 15,2 C 12,8 C 11,1 C 62 % 1017,9 hPa 0,0 l/m 0 min 0 min 0 W/m 0,0 km/h (0 Bft) 100,00 %
30.03.2019 19:30 15,1 C 12,2 C 11,1 C 62 % 1017,9 hPa 0,0 l/m 0 min 0 min 0 W/m 0,0 km/h (0 Bft) 100,00 %
30.03.2019 19:32 15,1 C 12,2 C 11,1 C 62 % 1018,0 hPa 0,0 l/m 0 min 0 min 0 W/m 0,0 km/h (0 Bft) 100,00 %
30.03.2019 19:34 14,9 C 12,2 C 10,6 C 62 % 1018,0 hPa 0,0 l/m 0 min 0 min 0 W/m 0,0 km/h (0 Bft) 100,00 %
30.03.2019 19:36 14,9 C 12,2 C 10,6 C 62 % 1017,9 hPa 0,0 l/m 0 min 0 min 0 W/m 0,0 km/h (0 Bft) 97,87 %
30.03.2019 19:38 14,8 C 12,2 C 10,6 C 62 % 1018,0 hPa 0,0 l/m 0 min 0 min 0 W/m 0,0 km/h (0 Bft) 100,00 %
30.03.2019 19:40 14,7 C 12,2 C 10,6 C 63 % 1018,1 hPa 0,0 l/m 0 min 0 min 0 W/m 0,0 km/h (0 Bft) 100,00 %
30.03.2019 19:42 14,7 C 12,2 C 10,6 C 63 % 1018,1 hPa 0,0 l/m 0 min 0 min 0 W/m 0,0 km/h (0 Bft) 100,00 %
30.03.2019 19:44 14,6 C 12,2 C 10,6 C 63 % 1018,1 hPa 0,0 l/m 0 min 0 min 0 W/m 0,0 km/h (0 Bft) 100,00 %
30.03.2019 19:46 14,5 C 11,7 C 10,6 C 64 % 1018,1 hPa 0,0 l/m 0 min 0 min 0 W/m 0,0 km/h (0 Bft) 100,00 %
30.03.2019 19:48 14,4 C 11,7 C 10,6 C 64 % 1018,1 hPa 0,0 l/m 0 min 0 min 0 W/m 0,0 km/h (0 Bft) 97,87 %
30.03.2019 19:50 14,3 C 11,7 C 10,6 C 64 % 1018,2 hPa 0,0 l/m 0 min 0 min 0 W/m 0,0 km/h (0 Bft) 100,00 %
30.03.2019 19:52 14,2 C 12,2 C 10,6 C 64 % 1018,2 hPa 0,0 l/m 0 min 0 min 0 W/m 0,0 km/h (0 Bft) 97,87 %
30.03.2019 19:54 14,2 C 12,2 C 10,6 C 64 % 1018,2 hPa 0,0 l/m 0 min 0 min 0 W/m 0,0 km/h (0 Bft) 100,00 %
30.03.2019 19:56 14,2 C 12,2 C 10,0 C 64 % 1018,2 hPa 0,0 l/m 0 min 0 min 0 W/m 0,0 km/h (0 Bft) 95,65 %
30.03.2019 19:58 14,2 C 12,2 C 10,0 C 64 % 1018,2 hPa 0,0 l/m 0 min 0 min 0 W/m 0,0 km/h (0 Bft) 97,87 %
30.03.2019 20:00 14,2 C 12,2 C 10,0 C 64 % 1018,2 hPa 0,0 l/m 0 min 0 min 0 W/m 0,0 km/h (0 Bft) 100,00 %
30.03.2019 20:02 14,1 C 11,7 C 10,0 C 64 % 1018,2 hPa 0,0 l/m 0 min 0 min 0 W/m 0,0 km/h (0 Bft) 97,87 %
30.03.2019 20:04 13,9 C 11,7 C 10,0 C 65 % 1018,3 hPa 0,0 l/m 0 min 0 min 0 W/m 0,0 km/h (0 Bft) 97,87 %
30.03.2019 20:06 13,9 C 11,7 C 10,0 C 65 % 1018,2 hPa 0,0 l/m 0 min 0 min 0 W/m 0,0 km/h (0 Bft) 93,62 %
30.03.2019 20:08 13,8 C 11,7 C 10,0 C 65 % 1018,2 hPa 0,0 l/m 0 min 0 min 0 W/m 0,0 km/h (0 Bft) 95,65 %
30.03.2019 20:10 13,8 C 11,7 C 10,0 C 65 % 1018,2 hPa 0,0 l/m 0 min 0 min 0 W/m 0,0 km/h (0 Bft) 95,74 %
30.03.2019 20:12 13,7 C 11,7 C 10,0 C 65 % 1018,3 hPa 0,0 l/m 0 min 0 min 0 W/m 0,0 km/h (0 Bft) 93,62 %
30.03.2019 20:14 13,7 C 11,1 C 10,0 C 65 % 1018,3 hPa 0,0 l/m 0 min 0 min 0 W/m 0,0 km/h (0 Bft) 95,74 %
30.03.2019 20:16 13,6 C 11,1 C 9,4 C 66 % 1018,3 hPa 0,0 l/m 0 min 0 min 0 W/m 0,0 km/h (0 Bft) 93,62 %
30.03.2019 20:18 13,6 C 11,1 C 9,4 C 66 % 1018,4 hPa 0,0 l/m 0 min 0 min 0 W/m 0,0 km/h (0 Bft) 95,74 %
30.03.2019 20:20 13,5 C 11,1 C 9,4 C 66 % 1018,4 hPa 0,0 l/m 0 min 0 min 0 W/m 0,0 km/h (0 Bft) 93,62 %
30.03.2019 20:22 13,4 C 11,1 C 9,4 C 66 % 1018,4 hPa 0,0 l/m 0 min 0 min 0 W/m 0,0 km/h (0 Bft) 91,49 %
30.03.2019 20:24 13,4 C 11,1 C 9,4 C 67 % 1018,3 hPa 0,0 l/m 0 min 0 min 0 W/m 0,0 km/h (0 Bft) 93,62 %
30.03.2019 20:26 13,3 C 11,1 C 9,4 C 67 % 1018,3 hPa 0,0 l/m 0 min 0 min 0 W/m 0,0 km/h (0 Bft) 91,49 %
30.03.2019 20:28 13,2 C 10,6 C 9,4 C 67 % 1018,3 hPa 0,0 l/m 0 min 0 min 0 W/m 0,0 km/h (0 Bft) 91,49 %
30.03.2019 20:30 13,2 C 11,1 C 9,4 C 67 % 1018,3 hPa 0,0 l/m 0 min 0 min 0 W/m 0,0 km/h (0 Bft) 91,30 %
30.03.2019 20:32 13,1 C 11,1 C 9,4 C 67 % 1018,3 hPa 0,0 l/m 0 min 0 min 0 W/m 0,0 km/h (0 Bft) 93,62 %
30.03.2019 20:34 13,1 C 11,1 C 9,4 C 67 % 1018,3 hPa 0,0 l/m 0 min 0 min 0 W/m 0,0 km/h (0 Bft) 93,62 %
30.03.2019 20:36 13,0 C 10,6 C 9,4 C 68 % 1018,3 hPa 0,0 l/m 0 min 0 min 0 W/m 0,0 km/h (0 Bft) 93,62 %
30.03.2019 20:38 12,9 C 10,6 C 9,4 C 68 % 1018,3 hPa 0,0 l/m 0 min 0 min 0 W/m 0,0 km/h (0 Bft) 93,62 %
30.03.2019 20:40 12,9 C 10,6 C 9,4 C 68 % 1018,3 hPa 0,0 l/m 0 min 0 min 0 W/m 0,0 km/h (0 Bft) 91,49 %
30.03.2019 20:42 12,8 C 10,6 C 9,4 C 68 % 1018,3 hPa 0,0 l/m 0 min 0 min 0 W/m 0,0 km/h (0 Bft) 93,62 %
30.03.2019 20:44 12,8 C 10,6 C 9,4 C 68 % 1018,3 hPa 0,0 l/m 0 min 0 min 0 W/m 0,0 km/h (0 Bft) 89,13 %
30.03.2019 20:46 12,7 C 10,6 C 9,4 C 68 % 1018,3 hPa 0,0 l/m 0 min 0 min 0 W/m 0,0 km/h (0 Bft) 93,62 %
30.03.2019 20:48 12,7 C 10,6 C 9,4 C 68 % 1018,4 hPa 0,0 l/m 0 min 0 min 0 W/m 0,0 km/h (0 Bft) 93,62 %
30.03.2019 20:50 12,6 C 10,0 C 8,9 C 68 % 1018,4 hPa 0,0 l/m 0 min 0 min 0 W/m 0,0 km/h (0 Bft) 93,62 %
30.03.2019 20:52 12,6 C 10,0 C 8,9 C 69 % 1018,4 hPa 0,0 l/m 0 min 0 min 0 W/m 0,0 km/h (0 Bft) 91,49 %
30.03.2019 20:54 12,5 C 10,0 C 8,9 C 69 % 1018,4 hPa 0,0 l/m 0 min 0 min 0 W/m 0,0 km/h (0 Bft) 95,65 %
30.03.2019 20:56 12,4 C 10,0 C 8,9 C 70 % 1018,4 hPa 0,0 l/m 0 min 0 min 0 W/m 0,0 km/h (0 Bft) 91,49 %
30.03.2019 20:58 12,4 C 10,0 C 8,9 C 70 % 1018,4 hPa 0,0 l/m 0 min 0 min 0 W/m 0,0 km/h (0 Bft) 97,87 %
30.03.2019 21:00 12,4 C 10,0 C 8,9 C 70 % 1018,5 hPa 0,0 l/m 0 min 0 min 0 W/m 0,0 km/h (0 Bft) 95,74 %
30.03.2019 21:02 12,3 C 10,0 C 8,9 C 70 % 1018,5 hPa 0,0 l/m 0 min 0 min 0 W/m 0,0 km/h (0 Bft) 95,74 %
30.03.2019 21:04 12,3 C 10,0 C 8,9 C 70 % 1018,5 hPa 0,0 l/m 0 min 0 min 0 W/m 0,0 km/h (0 Bft) 97,87 %
30.03.2019 21:06 12,2 C 10,6 C 8,9 C 70 % 1018,5 hPa 0,0 l/m 0 min 0 min 0 W/m 0,0 km/h (0 Bft) 93,48 %
30.03.2019 21:08 12,2 C 10,6 C 8,9 C 71 % 1018,5 hPa 0,0 l/m 0 min 0 min 0 W/m 0,0 km/h (0 Bft) 97,87 %
30.03.2019 21:10 12,2 C 10,6 C 8,9 C 71 % 1018,5 hPa 0,0 l/m 0 min 0 min 0 W/m 0,0 km/h (0 Bft) 97,87 %
30.03.2019 21:12 12,1 C 10,6 C 8,9 C 71 % 1018,5 hPa 0,0 l/m 0 min 0 min 0 W/m 0,0 km/h (0 Bft) 97,87 %
30.03.2019 21:14 12,1 C 10,6 C 8,9 C 71 % 1018,4 hPa 0,0 l/m 0 min 0 min 0 W/m 0,0 km/h (0 Bft) 95,74 %
30.03.2019 21:16 12,0 C 10,6 C 8,9 C 71 % 1018,5 hPa 0,0 l/m 0 min 0 min 0 W/m 0,0 km/h (0 Bft) 97,87 %
30.03.2019 21:18 12,0 C 10,6 C 8,9 C 71 % 1018,5 hPa 0,0 l/m 0 min 0 min 0 W/m 0,0 km/h (0 Bft) 95,65 %
30.03.2019 21:20 11,9 C 10,6 C 8,9 C 71 % 1018,5 hPa 0,0 l/m 0 min 0 min 0 W/m 0,0 km/h (0 Bft) 97,87 %
30.03.2019 21:22 11,9 C 10,6 C 8,9 C 71 % 1018,4 hPa 0,0 l/m 0 min 0 min 0 W/m 0,0 km/h (0 Bft) 97,87 %
30.03.2019 21:24 11,9 C 11,1 C 8,9 C 72 % 1018,5 hPa 0,0 l/m 0 min 0 min 0 W/m 0,0 km/h (0 Bft) 97,87 %
30.03.2019 21:26 11,8 C 11,1 C 8,9 C 72 % 1018,5 hPa 0,0 l/m 0 min 0 min 0 W/m 0,0 km/h (0 Bft) 97,87 %
30.03.2019 21:28 11,8 C 11,1 C 8,9 C 72 % 1018,5 hPa 0,0 l/m 0 min 0 min 0 W/m 0,0 km/h (0 Bft) 100,00 %
30.03.2019 21:30 11,8 C 10,6 C 8,9 C 72 % 1018,5 hPa 0,0 l/m 0 min 0 min 0 W/m 0,0 km/h (0 Bft) 97,83 %
30.03.2019 21:32 11,8 C 10,6 C 8,9 C 72 % 1018,5 hPa 0,0 l/m 0 min 0 min 0 W/m 0,0 km/h (0 Bft) 100,00 %
30.03.2019 21:34 11,7 C 10,6 C 8,9 C 72 % 1018,6 hPa 0,0 l/m 0 min 0 min 0 W/m 0,0 km/h (0 Bft) 97,87 %
30.03.2019 21:36 11,7 C 10,6 C 8,9 C 72 % 1018,6 hPa 0,0 l/m 0 min 0 min 0 W/m 0,0 km/h (0 Bft) 100,00 %
30.03.2019 21:38 11,7 C 10,6 C 8,9 C 72 % 1018,6 hPa 0,0 l/m 0 min 0 min 0 W/m 0,0 km/h (0 Bft) 100,00 %
30.03.2019 21:40 11,6 C 10,0 C 8,9 C 72 % 1018,5 hPa 0,0 l/m 0 min 0 min 0 W/m 0,0 km/h (0 Bft) 100,00 %
30.03.2019 21:42 11,6 C 10,6 C 8,9 C 72 % 1018,5 hPa 0,0 l/m 0 min 0 min 0 W/m 0,0 km/h (0 Bft) 100,00 %
30.03.2019 21:44 11,6 C 10,0 C 8,9 C 72 % 1018,5 hPa 0,0 l/m 0 min 0 min 0 W/m 0,0 km/h (0 Bft) 100,00 %
30.03.2019 21:46 11,6 C 10,0 C 8,9 C 72 % 1018,5 hPa 0,0 l/m 0 min 0 min 0 W/m 0,0 km/h (0 Bft) 97,87 %
30.03.2019 21:48 11,5 C 10,0 C 8,9 C 72 % 1018,5 hPa 0,0 l/m 0 min 0 min 0 W/m 0,0 km/h (0 Bft) 97,87 %
30.03.2019 21:50 11,5 C 10,0 C 8,3 C 72 % 1018,5 hPa 0,0 l/m 0 min 0 min 0 W/m 0,0 km/h (0 Bft) 100,00 %
30.03.2019 21:52 11,5 C 10,0 C 8,3 C 72 % 1018,5 hPa 0,0 l/m 0 min 0 min 0 W/m 0,0 km/h (0 Bft) 97,87 %
30.03.2019 21:54 11,4 C 9,4 C 8,3 C 72 % 1018,5 hPa 0,0 l/m 0 min 0 min 0 W/m 0,0 km/h (0 Bft) 100,00 %
30.03.2019 21:56 11,4 C 9,4 C 8,3 C 72 % 1018,6 hPa 0,0 l/m 0 min 0 min 0 W/m 0,0 km/h (0 Bft) 100,00 %
30.03.2019 21:58 11,4 C 9,4 C 8,3 C 73 % 1018,6 hPa 0,0 l/m 0 min 0 min 0 W/m 0,0 km/h (0 Bft) 100,00 %
30.03.2019 22:00 11,3 C 9,4 C 8,3 C 72 % 1018,6 hPa 0,0 l/m 0 min 0 min 0 W/m 0,0 km/h (0 Bft) 100,00 %
30.03.2019 22:02 11,3 C 9,4 C 8,3 C 72 % 1018,6 hPa 0,0 l/m 0 min 0 min 0 W/m 0,0 km/h (0 Bft) 97,92 %
30.03.2019 22:04 11,3 C 9,4 C 8,3 C 73 % 1018,7 hPa 0,0 l/m 0 min 0 min 0 W/m 0,0 km/h (0 Bft) 97,83 %
30.03.2019 22:06 11,3 C 9,4 C 8,3 C 73 % 1018,7 hPa 0,0 l/m 0 min 0 min 0 W/m 0,0 km/h (0 Bft) 95,74 %
30.03.2019 22:08 11,2 C 9,4 C 8,3 C 73 % 1018,7 hPa 0,0 l/m 0 min 0 min 0 W/m 0,0 km/h (0 Bft) 100,00 %
30.03.2019 22:10 11,2 C 9,4 C 8,3 C 73 % 1018,6 hPa 0,0 l/m 0 min 0 min 0 W/m 0,0 km/h (0 Bft) 97,87 %
30.03.2019 22:12 11,2 C 9,4 C 7,8 C 73 % 1018,7 hPa 0,0 l/m 0 min 0 min 0 W/m 0,0 km/h (0 Bft) 97,87 %
30.03.2019 22:14 11,2 C 8,9 C 7,8 C 73 % 1018,7 hPa 0,0 l/m 0 min 0 min 0 W/m 0,0 km/h (0 Bft) 97,87 %
30.03.2019 22:16 11,1 C 8,9 C 7,8 C 73 % 1018,7 hPa 0,0 l/m 0 min 0 min 0 W/m 0,0 km/h (0 Bft) 97,83 %
30.03.2019 22:18 11,1 C 8,9 C 7,8 C 73 % 1018,8 hPa 0,0 l/m 0 min 0 min 0 W/m 0,0 km/h (0 Bft) 97,87 %
30.03.2019 22:20 11,1 C 8,9 C 7,8 C 73 % 1018,7 hPa 0,0 l/m 0 min 0 min 0 W/m 0,0 km/h (0 Bft) 97,87 %
30.03.2019 22:22 11,0 C 8,9 C 7,8 C 73 % 1018,7 hPa 0,0 l/m 0 min 0 min 0 W/m 0,0 km/h (0 Bft) 97,92 %
30.03.2019 22:24 11,0 C 8,9 C 7,8 C 73 % 1018,7 hPa 0,0 l/m 0 min 0 min 0 W/m 0,0 km/h (0 Bft) 97,87 %
30.03.2019 22:26 10,9 C 8,9 C 7,8 C 73 % 1018,7 hPa 0,0 l/m 0 min 0 min 0 W/m 0,0 km/h (0 Bft) 94,29 %
30.03.2019 22:28 10,9 C 8,9 C 7,8 C 73 % 1018,7 hPa 0,0 l/m 0 min 0 min 0 W/m 0,0 km/h (0 Bft) 93,62 %
30.03.2019 22:30 10,9 C 8,9 C 7,8 C 73 % 1018,7 hPa 0,0 l/m 0 min 0 min 0 W/m 3,2 km/h (1 Bft) 97,83 %
30.03.2019 22:32 10,9 C 9,4 C 7,8 C 74 % 1018,7 hPa 0,0 l/m 0 min 0 min 0 W/m 0,0 km/h (0 Bft) 97,87 %
30.03.2019 22:34 10,8 C 9,4 C 7,8 C 74 % 1018,7 hPa 0,0 l/m 0 min 0 min 0 W/m 0,0 km/h (0 Bft) 97,87 %
30.03.2019 22:36 10,8 C 8,9 C 7,8 C 74 % 1018,7 hPa 0,0 l/m 0 min 0 min 0 W/m 0,0 km/h (0 Bft) 96,61 %
30.03.2019 22:38 10,8 C 8,9 C 7,8 C 74 % 1018,7 hPa 0,0 l/m 0 min 0 min 0 W/m 0,0 km/h (0 Bft) 100,00 %
30.03.2019 22:40 10,7 C 8,9 C 7,2 C 74 % 1018,7 hPa 0,0 l/m 0 min 0 min 0 W/m 0,0 km/h (0 Bft) 97,87 %
30.03.2019 22:42 10,7 C 8,9 C 7,2 C 74 % 1018,7 hPa 0,0 l/m 0 min 0 min 0 W/m 0,0 km/h (0 Bft) 100,00 %
30.03.2019 22:44 10,7 C 8,3 C 7,2 C 74 % 1018,6 hPa 0,0 l/m 0 min 0 min 0 W/m 0,0 km/h (0 Bft) 100,00 %
30.03.2019 22:46 10,6 C 8,3 C 7,2 C 74 % 1018,6 hPa 0,0 l/m 0 min 0 min 0 W/m 0,0 km/h (0 Bft) 100,00 %
30.03.2019 22:48 10,6 C 8,3 C 7,2 C 74 % 1018,7 hPa 0,0 l/m 0 min 0 min 0 W/m 0,0 km/h (0 Bft) 100,00 %
30.03.2019 22:50 10,6 C 8,3 C 7,2 C 74 % 1018,7 hPa 0,0 l/m 0 min 0 min 0 W/m 0,0 km/h (0 Bft) 100,00 %
30.03.2019 22:52 10,5 C 8,3 C 7,2 C 74 % 1018,7 hPa 0,0 l/m 0 min 0 min 0 W/m 0,0 km/h (0 Bft) 100,00 %
30.03.2019 22:54 10,5 C 8,3 C 7,2 C 74 % 1018,7 hPa 0,0 l/m 0 min 0 min 0 W/m 0,0 km/h (0 Bft) 100,00 %
30.03.2019 22:56 10,4 C 8,3 C 7,2 C 75 % 1018,7 hPa 0,0 l/m 0 min 0 min 0 W/m 0,0 km/h (0 Bft) 100,00 %
30.03.2019 22:58 10,4 C 8,3 C 7,2 C 75 % 1018,7 hPa 0,0 l/m 0 min 0 min 0 W/m 0,0 km/h (0 Bft) 100,00 %
30.03.2019 23:00 10,4 C 8,9 C 7,2 C 75 % 1018,7 hPa 0,0 l/m 0 min 0 min 0 W/m 0,0 km/h (0 Bft) 100,00 %
30.03.2019 23:02 10,3 C 8,9 C 7,2 C 75 % 1018,7 hPa 0,0 l/m 0 min 0 min 0 W/m 0,0 km/h (0 Bft) 100,00 %
30.03.2019 23:04 10,3 C 8,9 C 7,2 C 75 % 1018,8 hPa 0,0 l/m 0 min 0 min 0 W/m 0,0 km/h (0 Bft) 100,00 %
30.03.2019 23:06 10,3 C 8,9 C 6,7 C 76 % 1018,8 hPa 0,0 l/m 0 min 0 min 0 W/m 0,0 km/h (0 Bft) 100,00 %
30.03.2019 23:08 10,3 C 8,9 C 6,7 C 76 % 1018,7 hPa 0,0 l/m 0 min 0 min 0 W/m 0,0 km/h (0 Bft) 100,00 %
30.03.2019 23:10 10,2 C 8,9 C 6,7 C 76 % 1018,7 hPa 0,0 l/m 0 min 0 min 0 W/m 0,0 km/h (0 Bft) 100,00 %
30.03.2019 23:12 10,2 C 9,4 C 6,7 C 77 % 1018,7 hPa 0,0 l/m 0 min 0 min 0 W/m 0,0 km/h (0 Bft) 100,00 %
30.03.2019 23:14 10,2 C 9,4 C 6,7 C 78 % 1018,7 hPa 0,0 l/m 0 min 0 min 0 W/m 0,0 km/h (0 Bft) 100,00 %
30.03.2019 23:16 10,2 C 8,9 C 7,2 C 78 % 1018,7 hPa 0,0 l/m 0 min 0 min 0 W/m 0,0 km/h (0 Bft) 97,83 %
30.03.2019 23:18 10,1 C 8,9 C 6,7 C 79 % 1018,9 hPa 0,0 l/m 0 min 0 min 0 W/m 0,0 km/h (0 Bft) 95,74 %
30.03.2019 23:20 10,1 C 8,3 C 6,7 C 78 % 1018,8 hPa 0,0 l/m 0 min 0 min 0 W/m 0,0 km/h (0 Bft) 97,87 %
30.03.2019 23:22 10,1 C 8,3 C 6,7 C 78 % 1018,8 hPa 0,0 l/m 0 min 0 min 0 W/m 0,0 km/h (0 Bft) 100,00 %
30.03.2019 23:24 10,0 C 8,9 C 6,7 C 78 % 1018,8 hPa 0,0 l/m 0 min 0 min 0 W/m 0,0 km/h (0 Bft) 97,87 %
30.03.2019 23:26 10,0 C 8,9 C 6,7 C 79 % 1018,8 hPa 0,0 l/m 0 min 0 min 0 W/m 0,0 km/h (0 Bft) 97,87 %
30.03.2019 23:28 10,0 C 8,9 C 6,7 C 79 % 1018,8 hPa 0,0 l/m 0 min 0 min 0 W/m 3,2 km/h (1 Bft) 97,83 %
30.03.2019 23:30 9,9 C 9,4 C 6,7 C 80 % 1018,7 hPa 0,0 l/m 0 min 0 min 0 W/m 0,0 km/h (0 Bft) 97,87 %
30.03.2019 23:32 9,9 C 9,4 C 6,7 C 80 % 1018,7 hPa 0,0 l/m 0 min 0 min 0 W/m 0,0 km/h (0 Bft) 97,87 %
30.03.2019 23:34 9,9 C 9,4 C 6,7 C 80 % 1018,8 hPa 0,0 l/m 0 min 0 min 0 W/m 0,0 km/h (0 Bft) 100,00 %
30.03.2019 23:36 9,9 C 8,9 C 6,7 C 80 % 1018,8 hPa 0,0 l/m 0 min 0 min 0 W/m 0,0 km/h (0 Bft) 96,55 %
30.03.2019 23:38 9,9 C 8,9 C 6,7 C 80 % 1018,8 hPa 0,0 l/m 0 min 0 min 0 W/m 0,0 km/h (0 Bft) 95,74 %
30.03.2019 23:40 9,8 C 8,3 C 6,7 C 80 % 1018,8 hPa 0,0 l/m 0 min 0 min 0 W/m 0,0 km/h (0 Bft) 97,14 %
30.03.2019 23:42 9,8 C 8,3 C 6,7 C 80 % 1018,7 hPa 0,0 l/m 0 min 0 min 0 W/m 0,0 km/h (0 Bft) 95,74 %
30.03.2019 23:44 9,8 C 7,8 C 6,7 C 80 % 1018,8 hPa 0,0 l/m 0 min 0 min 0 W/m 0,0 km/h (0 Bft) 95,74 %
30.03.2019 23:46 9,7 C 7,8 C 6,7 C 80 % 1018,7 hPa 0,0 l/m 0 min 0 min 0 W/m 0,0 km/h (0 Bft) 93,62 %
30.03.2019 23:48 9,7 C 7,8 C 6,7 C 80 % 1018,7 hPa 0,0 l/m 0 min 0 min 0 W/m 0,0 km/h (0 Bft) 97,87 %
30.03.2019 23:50 9,7 C 7,8 C 6,1 C 80 % 1018,8 hPa 0,0 l/m 0 min 0 min 0 W/m 0,0 km/h (0 Bft) 97,87 %
30.03.2019 23:52 9,7 C 7,8 C 6,1 C 80 % 1018,8 hPa 0,0 l/m 0 min 0 min 0 W/m 0,0 km/h (0 Bft) 95,65 %
30.03.2019 23:54 9,6 C 7,8 C 6,1 C 80 % 1018,8 hPa 0,0 l/m 0 min 0 min 0 W/m 0,0 km/h (0 Bft) 93,62 %
30.03.2019 23:56 9,6 C 8,3 C 6,1 C 81 % 1018,8 hPa 0,0 l/m 0 min 0 min 0 W/m 0,0 km/h (0 Bft) 91,49 %
30.03.2019 23:58 9,6 C 8,9 C 6,1 C 81 % 1018,8 hPa 0,0 l/m 0 min 0 min 0 W/m 0,0 km/h (0 Bft) 95,74 %
_ Min-Zeit 06:02 00:14 00:00 12:36 17:32 - - - - 00:00 00:02
Minimum _ 6,8 C 5,6 C 4,4 C 44 % 1017,5 hPa - - - - 0,0 km/h (0 Bft) 10,53 %
_ Max-Zeit 14:20 14:04 13:02 00:50 00:00 00:00 12:08 00:00 12:24 13:10 00:00
Maximum _ 20,9 C 27,2 C 25,6 C 89 % 1023,2 hPa 0,0 l/m 4 min 0 min 829 W/m 32,2 km/h
S-SO (5 Bft)
100,00 %
Durchschnitt _ 13,1 C 13,9 C 12,0 C 69 % 1019,6 hPa #0,0 l/m #8:02 h #0 min. 385 W/m 8,8 km/h (2 Bft) 97,37 %
© 2019 W. Hausmann